<?xml version="1.0" encoding="UTF-8" standalone="no" ?>
<gpx xmlns="http://www.topografix.com/GPX/1/1" xmlns:xsi="http://www.w3.org/2001/XMLSchema-instance" xsi:schemaLocation="http://www.topografix.com/GPX/1/1 http://www.topografix.com/GPX/1/1/gpx.xsd" version="1.1" creator="VisuGPX - https://www.visugpx.com">
  <metadata>
    <name>Le moulin du Bougès</name>
    <desc><![CDATA[Démarrage depuis le parking de Saint Julien d'Arpaon situé en dessous du temple. Puis suivre tout le long le balisage jaune du PR.]]></desc>
  </metadata>
  <trk>
    <name><![CDATA[Le moulin du Bougès_1]]></name>
    <trkseg>
      <trkpt lat="44.30085" lon="3.66371">
        <ele>614</ele>
        <time>2016-05-16T08:19:46Z</time>
      </trkpt>
      <trkpt lat="44.30095" lon="3.66406">
        <ele>624</ele>
        <time>2016-05-16T08:23:40Z</time>
      </trkpt>
      <trkpt lat="44.30088" lon="3.66414">
        <ele>622</ele>
        <time>2016-05-16T08:23:50Z</time>
      </trkpt>
      <trkpt lat="44.30081" lon="3.66412">
        <ele>620</ele>
        <time>2016-05-16T08:24:03Z</time>
      </trkpt>
      <trkpt lat="44.30073" lon="3.66408">
        <ele>620</ele>
        <time>2016-05-16T08:24:12Z</time>
      </trkpt>
      <trkpt lat="44.3007" lon="3.66404">
        <ele>621</ele>
        <time>2016-05-16T08:24:22Z</time>
      </trkpt>
      <trkpt lat="44.30065" lon="3.66401">
        <ele>622</ele>
        <time>2016-05-16T08:24:31Z</time>
      </trkpt>
      <trkpt lat="44.30059" lon="3.66399">
        <ele>622</ele>
        <time>2016-05-16T08:24:42Z</time>
      </trkpt>
      <trkpt lat="44.30053" lon="3.66398">
        <ele>622</ele>
        <time>2016-05-16T08:24:53Z</time>
      </trkpt>
      <trkpt lat="44.30047" lon="3.66403">
        <ele>622</ele>
        <time>2016-05-16T08:25:03Z</time>
      </trkpt>
      <trkpt lat="44.30043" lon="3.6641">
        <ele>622</ele>
        <time>2016-05-16T08:25:12Z</time>
      </trkpt>
      <trkpt lat="44.30048" lon="3.66419">
        <ele>622</ele>
        <time>2016-05-16T08:25:22Z</time>
      </trkpt>
      <trkpt lat="44.30048" lon="3.66424">
        <ele>622</ele>
        <time>2016-05-16T08:25:31Z</time>
      </trkpt>
      <trkpt lat="44.30049" lon="3.66432">
        <ele>622</ele>
        <time>2016-05-16T08:25:41Z</time>
      </trkpt>
      <trkpt lat="44.3005" lon="3.66439">
        <ele>625</ele>
        <time>2016-05-16T08:25:50Z</time>
      </trkpt>
      <trkpt lat="44.30051" lon="3.66447">
        <ele>630</ele>
        <time>2016-05-16T08:25:59Z</time>
      </trkpt>
      <trkpt lat="44.3005" lon="3.66454">
        <ele>633</ele>
        <time>2016-05-16T08:26:09Z</time>
      </trkpt>
      <trkpt lat="44.30054" lon="3.66466">
        <ele>634</ele>
        <time>2016-05-16T08:26:18Z</time>
      </trkpt>
      <trkpt lat="44.30057" lon="3.66476">
        <ele>634</ele>
        <time>2016-05-16T08:26:27Z</time>
      </trkpt>
      <trkpt lat="44.30055" lon="3.66486">
        <ele>634</ele>
        <time>2016-05-16T08:26:37Z</time>
      </trkpt>
      <trkpt lat="44.30048" lon="3.66495">
        <ele>636</ele>
        <time>2016-05-16T08:26:47Z</time>
      </trkpt>
      <trkpt lat="44.30043" lon="3.66503">
        <ele>637</ele>
        <time>2016-05-16T08:26:56Z</time>
      </trkpt>
      <trkpt lat="44.30036" lon="3.66512">
        <ele>639</ele>
        <time>2016-05-16T08:27:07Z</time>
      </trkpt>
      <trkpt lat="44.30031" lon="3.66522">
        <ele>640</ele>
        <time>2016-05-16T08:27:16Z</time>
      </trkpt>
      <trkpt lat="44.30024" lon="3.66532">
        <ele>642</ele>
        <time>2016-05-16T08:27:25Z</time>
      </trkpt>
      <trkpt lat="44.3002" lon="3.66535">
        <ele>643</ele>
        <time>2016-05-16T08:27:34Z</time>
      </trkpt>
      <trkpt lat="44.30013" lon="3.6654">
        <ele>644</ele>
        <time>2016-05-16T08:27:43Z</time>
      </trkpt>
      <trkpt lat="44.30003" lon="3.66546">
        <ele>648</ele>
        <time>2016-05-16T08:27:52Z</time>
      </trkpt>
      <trkpt lat="44.29995" lon="3.66554">
        <ele>648</ele>
        <time>2016-05-16T08:28:01Z</time>
      </trkpt>
      <trkpt lat="44.29984" lon="3.66562">
        <ele>644</ele>
        <time>2016-05-16T08:28:10Z</time>
      </trkpt>
      <trkpt lat="44.29977" lon="3.66565">
        <ele>644</ele>
        <time>2016-05-16T08:28:21Z</time>
      </trkpt>
      <trkpt lat="44.29969" lon="3.66572">
        <ele>648</ele>
        <time>2016-05-16T08:28:31Z</time>
      </trkpt>
      <trkpt lat="44.29963" lon="3.66582">
        <ele>648</ele>
        <time>2016-05-16T08:28:40Z</time>
      </trkpt>
      <trkpt lat="44.29957" lon="3.66592">
        <ele>648</ele>
        <time>2016-05-16T08:28:49Z</time>
      </trkpt>
      <trkpt lat="44.29951" lon="3.666">
        <ele>650</ele>
        <time>2016-05-16T08:28:59Z</time>
      </trkpt>
      <trkpt lat="44.29946" lon="3.6661">
        <ele>652</ele>
        <time>2016-05-16T08:29:08Z</time>
      </trkpt>
      <trkpt lat="44.29942" lon="3.66627">
        <ele>652</ele>
        <time>2016-05-16T08:29:18Z</time>
      </trkpt>
      <trkpt lat="44.29941" lon="3.66632">
        <ele>652</ele>
        <time>2016-05-16T08:29:27Z</time>
      </trkpt>
      <trkpt lat="44.2994" lon="3.66639">
        <ele>646</ele>
        <time>2016-05-16T08:29:44Z</time>
      </trkpt>
      <trkpt lat="44.29942" lon="3.66641">
        <ele>646</ele>
        <time>2016-05-16T08:29:55Z</time>
      </trkpt>
      <trkpt lat="44.29939" lon="3.66641">
        <ele>660</ele>
        <time>2016-05-16T08:30:13Z</time>
      </trkpt>
      <trkpt lat="44.2994" lon="3.6665">
        <ele>656</ele>
        <time>2016-05-16T08:30:51Z</time>
      </trkpt>
      <trkpt lat="44.29942" lon="3.66646">
        <ele>646</ele>
        <time>2016-05-16T08:31:13Z</time>
      </trkpt>
      <trkpt lat="44.29937" lon="3.66651">
        <ele>652</ele>
        <time>2016-05-16T08:31:39Z</time>
      </trkpt>
      <trkpt lat="44.29937" lon="3.66651">
        <ele>653</ele>
        <time>2016-05-16T08:31:52Z</time>
      </trkpt>
      <trkpt lat="44.29933" lon="3.66652">
        <ele>653</ele>
        <time>2016-05-16T08:32:03Z</time>
      </trkpt>
      <trkpt lat="44.29928" lon="3.66662">
        <ele>653</ele>
        <time>2016-05-16T08:32:13Z</time>
      </trkpt>
      <trkpt lat="44.29926" lon="3.66666">
        <ele>653</ele>
        <time>2016-05-16T08:32:29Z</time>
      </trkpt>
      <trkpt lat="44.29921" lon="3.66674">
        <ele>653</ele>
        <time>2016-05-16T08:32:38Z</time>
      </trkpt>
      <trkpt lat="44.29916" lon="3.66682">
        <ele>653</ele>
        <time>2016-05-16T08:32:48Z</time>
      </trkpt>
      <trkpt lat="44.29912" lon="3.66693">
        <ele>654</ele>
        <time>2016-05-16T08:32:57Z</time>
      </trkpt>
      <trkpt lat="44.29913" lon="3.66702">
        <ele>655</ele>
        <time>2016-05-16T08:33:07Z</time>
      </trkpt>
      <trkpt lat="44.29917" lon="3.66716">
        <ele>658</ele>
        <time>2016-05-16T08:33:16Z</time>
      </trkpt>
      <trkpt lat="44.29924" lon="3.66734">
        <ele>658</ele>
        <time>2016-05-16T08:33:25Z</time>
      </trkpt>
      <trkpt lat="44.29916" lon="3.66747">
        <ele>656</ele>
        <time>2016-05-16T08:33:36Z</time>
      </trkpt>
      <trkpt lat="44.29905" lon="3.66752">
        <ele>656</ele>
        <time>2016-05-16T08:33:45Z</time>
      </trkpt>
      <trkpt lat="44.29891" lon="3.66748">
        <ele>656</ele>
        <time>2016-05-16T08:33:55Z</time>
      </trkpt>
      <trkpt lat="44.29881" lon="3.66741">
        <ele>656</ele>
        <time>2016-05-16T08:34:05Z</time>
      </trkpt>
      <trkpt lat="44.2988" lon="3.66733">
        <ele>654</ele>
        <time>2016-05-16T08:34:17Z</time>
      </trkpt>
      <trkpt lat="44.29882" lon="3.6673">
        <ele>653</ele>
        <time>2016-05-16T08:34:30Z</time>
      </trkpt>
      <trkpt lat="44.2988" lon="3.66735">
        <ele>654</ele>
        <time>2016-05-16T08:34:40Z</time>
      </trkpt>
      <trkpt lat="44.29882" lon="3.66738">
        <ele>654</ele>
        <time>2016-05-16T08:34:53Z</time>
      </trkpt>
      <trkpt lat="44.29887" lon="3.66744">
        <ele>658</ele>
        <time>2016-05-16T08:35:03Z</time>
      </trkpt>
      <trkpt lat="44.29891" lon="3.66755">
        <ele>664</ele>
        <time>2016-05-16T08:35:13Z</time>
      </trkpt>
      <trkpt lat="44.29889" lon="3.66765">
        <ele>668</ele>
        <time>2016-05-16T08:35:23Z</time>
      </trkpt>
      <trkpt lat="44.29884" lon="3.66767">
        <ele>670</ele>
        <time>2016-05-16T08:35:32Z</time>
      </trkpt>
      <trkpt lat="44.29878" lon="3.66768">
        <ele>667</ele>
        <time>2016-05-16T08:35:56Z</time>
      </trkpt>
      <trkpt lat="44.29881" lon="3.66768">
        <ele>667</ele>
        <time>2016-05-16T08:36:11Z</time>
      </trkpt>
      <trkpt lat="44.2988" lon="3.6677">
        <ele>667</ele>
        <time>2016-05-16T08:36:22Z</time>
      </trkpt>
      <trkpt lat="44.29876" lon="3.66776">
        <ele>667</ele>
        <time>2016-05-16T08:36:31Z</time>
      </trkpt>
      <trkpt lat="44.29874" lon="3.66783">
        <ele>667</ele>
        <time>2016-05-16T08:36:46Z</time>
      </trkpt>
      <trkpt lat="44.29875" lon="3.66786">
        <ele>668</ele>
        <time>2016-05-16T08:36:58Z</time>
      </trkpt>
      <trkpt lat="44.29871" lon="3.66786">
        <ele>668</ele>
        <time>2016-05-16T08:37:08Z</time>
      </trkpt>
      <trkpt lat="44.29864" lon="3.66775">
        <ele>668</ele>
        <time>2016-05-16T08:37:17Z</time>
      </trkpt>
      <trkpt lat="44.29857" lon="3.6677">
        <ele>668</ele>
        <time>2016-05-16T08:37:26Z</time>
      </trkpt>
      <trkpt lat="44.29849" lon="3.66765">
        <ele>668</ele>
        <time>2016-05-16T08:37:36Z</time>
      </trkpt>
      <trkpt lat="44.29849" lon="3.66764">
        <ele>669</ele>
        <time>2016-05-16T08:37:45Z</time>
      </trkpt>
      <trkpt lat="44.29847" lon="3.66774">
        <ele>672</ele>
        <time>2016-05-16T08:37:56Z</time>
      </trkpt>
      <trkpt lat="44.29844" lon="3.66781">
        <ele>675</ele>
        <time>2016-05-16T08:38:06Z</time>
      </trkpt>
      <trkpt lat="44.29837" lon="3.66782">
        <ele>667</ele>
        <time>2016-05-16T08:38:50Z</time>
      </trkpt>
      <trkpt lat="44.2984" lon="3.66778">
        <ele>666</ele>
        <time>2016-05-16T08:39:01Z</time>
      </trkpt>
      <trkpt lat="44.29841" lon="3.66778">
        <ele>669</ele>
        <time>2016-05-16T08:39:12Z</time>
      </trkpt>
      <trkpt lat="44.29839" lon="3.66778">
        <ele>669</ele>
        <time>2016-05-16T08:39:21Z</time>
      </trkpt>
      <trkpt lat="44.29839" lon="3.66779">
        <ele>669</ele>
        <time>2016-05-16T08:39:32Z</time>
      </trkpt>
      <trkpt lat="44.29845" lon="3.66775">
        <ele>669</ele>
        <time>2016-05-16T08:39:42Z</time>
      </trkpt>
      <trkpt lat="44.2985" lon="3.66778">
        <ele>669</ele>
        <time>2016-05-16T08:39:53Z</time>
      </trkpt>
      <trkpt lat="44.29851" lon="3.66784">
        <ele>669</ele>
        <time>2016-05-16T08:40:08Z</time>
      </trkpt>
      <trkpt lat="44.29854" lon="3.66783">
        <ele>671</ele>
        <time>2016-05-16T08:40:17Z</time>
      </trkpt>
      <trkpt lat="44.29856" lon="3.66777">
        <ele>671</ele>
        <time>2016-05-16T08:40:26Z</time>
      </trkpt>
      <trkpt lat="44.29858" lon="3.66785">
        <ele>670</ele>
        <time>2016-05-16T08:40:35Z</time>
      </trkpt>
      <trkpt lat="44.29855" lon="3.66794">
        <ele>669</ele>
        <time>2016-05-16T08:40:44Z</time>
      </trkpt>
      <trkpt lat="44.29851" lon="3.66803">
        <ele>667</ele>
        <time>2016-05-16T08:40:55Z</time>
      </trkpt>
      <trkpt lat="44.29852" lon="3.66806">
        <ele>667</ele>
        <time>2016-05-16T08:41:07Z</time>
      </trkpt>
      <trkpt lat="44.29851" lon="3.66808">
        <ele>666</ele>
        <time>2016-05-16T08:41:16Z</time>
      </trkpt>
      <trkpt lat="44.29858" lon="3.66812">
        <ele>666</ele>
        <time>2016-05-16T08:41:27Z</time>
      </trkpt>
      <trkpt lat="44.29858" lon="3.66813">
        <ele>666</ele>
        <time>2016-05-16T08:41:36Z</time>
      </trkpt>
      <trkpt lat="44.29854" lon="3.66806">
        <ele>666</ele>
        <time>2016-05-16T08:41:46Z</time>
      </trkpt>
      <trkpt lat="44.29845" lon="3.66807">
        <ele>666</ele>
        <time>2016-05-16T08:41:56Z</time>
      </trkpt>
      <trkpt lat="44.29844" lon="3.66808">
        <ele>666</ele>
        <time>2016-05-16T08:42:06Z</time>
      </trkpt>
      <trkpt lat="44.29846" lon="3.66803">
        <ele>666</ele>
        <time>2016-05-16T08:42:18Z</time>
      </trkpt>
      <trkpt lat="44.29852" lon="3.66802">
        <ele>666</ele>
        <time>2016-05-16T08:42:27Z</time>
      </trkpt>
      <trkpt lat="44.29858" lon="3.66793">
        <ele>666</ele>
        <time>2016-05-16T08:42:38Z</time>
      </trkpt>
      <trkpt lat="44.29866" lon="3.66787">
        <ele>666</ele>
        <time>2016-05-16T08:42:48Z</time>
      </trkpt>
      <trkpt lat="44.29869" lon="3.66788">
        <ele>671</ele>
        <time>2016-05-16T08:43:08Z</time>
      </trkpt>
      <trkpt lat="44.29871" lon="3.66785">
        <ele>671</ele>
        <time>2016-05-16T08:43:29Z</time>
      </trkpt>
      <trkpt lat="44.2987" lon="3.66788">
        <ele>671</ele>
        <time>2016-05-16T08:43:40Z</time>
      </trkpt>
      <trkpt lat="44.2987" lon="3.66797">
        <ele>670</ele>
        <time>2016-05-16T08:43:50Z</time>
      </trkpt>
      <trkpt lat="44.2987" lon="3.66806">
        <ele>670</ele>
        <time>2016-05-16T08:44:01Z</time>
      </trkpt>
      <trkpt lat="44.29871" lon="3.66806">
        <ele>670</ele>
        <time>2016-05-16T08:44:11Z</time>
      </trkpt>
      <trkpt lat="44.29871" lon="3.66808">
        <ele>670</ele>
        <time>2016-05-16T08:44:25Z</time>
      </trkpt>
      <trkpt lat="44.29874" lon="3.66816">
        <ele>670</ele>
        <time>2016-05-16T08:44:35Z</time>
      </trkpt>
      <trkpt lat="44.29876" lon="3.66823">
        <ele>670</ele>
        <time>2016-05-16T08:44:45Z</time>
      </trkpt>
      <trkpt lat="44.29877" lon="3.66829">
        <ele>674</ele>
        <time>2016-05-16T08:44:54Z</time>
      </trkpt>
      <trkpt lat="44.2988" lon="3.66834">
        <ele>676</ele>
        <time>2016-05-16T08:45:07Z</time>
      </trkpt>
      <trkpt lat="44.2988" lon="3.66844">
        <ele>679</ele>
        <time>2016-05-16T08:45:16Z</time>
      </trkpt>
      <trkpt lat="44.29878" lon="3.66849">
        <ele>679</ele>
        <time>2016-05-16T08:45:26Z</time>
      </trkpt>
      <trkpt lat="44.2988" lon="3.66855">
        <ele>679</ele>
        <time>2016-05-16T08:45:39Z</time>
      </trkpt>
      <trkpt lat="44.29882" lon="3.66861">
        <ele>679</ele>
        <time>2016-05-16T08:45:49Z</time>
      </trkpt>
      <trkpt lat="44.29882" lon="3.66867">
        <ele>679</ele>
        <time>2016-05-16T08:46:04Z</time>
      </trkpt>
      <trkpt lat="44.2988" lon="3.66868">
        <ele>678</ele>
        <time>2016-05-16T08:46:17Z</time>
      </trkpt>
      <trkpt lat="44.2988" lon="3.66871">
        <ele>678</ele>
        <time>2016-05-16T08:46:30Z</time>
      </trkpt>
      <trkpt lat="44.29881" lon="3.66871">
        <ele>678</ele>
        <time>2016-05-16T08:46:53Z</time>
      </trkpt>
      <trkpt lat="44.29885" lon="3.66874">
        <ele>678</ele>
        <time>2016-05-16T08:47:03Z</time>
      </trkpt>
      <trkpt lat="44.29889" lon="3.6688">
        <ele>678</ele>
        <time>2016-05-16T08:47:12Z</time>
      </trkpt>
      <trkpt lat="44.29892" lon="3.66888">
        <ele>678</ele>
        <time>2016-05-16T08:47:23Z</time>
      </trkpt>
      <trkpt lat="44.29895" lon="3.66893">
        <ele>679</ele>
        <time>2016-05-16T08:47:33Z</time>
      </trkpt>
      <trkpt lat="44.299" lon="3.669">
        <ele>681</ele>
        <time>2016-05-16T08:47:44Z</time>
      </trkpt>
      <trkpt lat="44.29903" lon="3.6691">
        <ele>681</ele>
        <time>2016-05-16T08:47:54Z</time>
      </trkpt>
      <trkpt lat="44.29907" lon="3.66916">
        <ele>686</ele>
        <time>2016-05-16T08:48:04Z</time>
      </trkpt>
      <trkpt lat="44.29912" lon="3.66923">
        <ele>690</ele>
        <time>2016-05-16T08:48:13Z</time>
      </trkpt>
      <trkpt lat="44.29916" lon="3.66932">
        <ele>693</ele>
        <time>2016-05-16T08:48:24Z</time>
      </trkpt>
      <trkpt lat="44.29923" lon="3.66935">
        <ele>695</ele>
        <time>2016-05-16T08:48:33Z</time>
      </trkpt>
      <trkpt lat="44.29929" lon="3.6694">
        <ele>696</ele>
        <time>2016-05-16T08:48:44Z</time>
      </trkpt>
      <trkpt lat="44.29934" lon="3.66945">
        <ele>696</ele>
        <time>2016-05-16T08:48:54Z</time>
      </trkpt>
      <trkpt lat="44.29939" lon="3.6695">
        <ele>696</ele>
        <time>2016-05-16T08:49:04Z</time>
      </trkpt>
      <trkpt lat="44.29945" lon="3.66957">
        <ele>696</ele>
        <time>2016-05-16T08:49:14Z</time>
      </trkpt>
      <trkpt lat="44.29949" lon="3.66966">
        <ele>699</ele>
        <time>2016-05-16T08:49:24Z</time>
      </trkpt>
      <trkpt lat="44.29951" lon="3.66974">
        <ele>699</ele>
        <time>2016-05-16T08:49:33Z</time>
      </trkpt>
      <trkpt lat="44.29955" lon="3.66979">
        <ele>701</ele>
        <time>2016-05-16T08:49:44Z</time>
      </trkpt>
      <trkpt lat="44.2996" lon="3.66975">
        <ele>702</ele>
        <time>2016-05-16T08:49:53Z</time>
      </trkpt>
      <trkpt lat="44.29965" lon="3.66976">
        <ele>703</ele>
        <time>2016-05-16T08:50:02Z</time>
      </trkpt>
      <trkpt lat="44.29966" lon="3.66981">
        <ele>704</ele>
        <time>2016-05-16T08:50:12Z</time>
      </trkpt>
      <trkpt lat="44.29969" lon="3.66984">
        <ele>705</ele>
        <time>2016-05-16T08:50:23Z</time>
      </trkpt>
      <trkpt lat="44.29969" lon="3.66988">
        <ele>711</ele>
        <time>2016-05-16T08:50:33Z</time>
      </trkpt>
      <trkpt lat="44.29966" lon="3.66993">
        <ele>713</ele>
        <time>2016-05-16T08:50:42Z</time>
      </trkpt>
      <trkpt lat="44.29962" lon="3.67001">
        <ele>714</ele>
        <time>2016-05-16T08:50:51Z</time>
      </trkpt>
      <trkpt lat="44.29962" lon="3.67011">
        <ele>714</ele>
        <time>2016-05-16T08:51:01Z</time>
      </trkpt>
      <trkpt lat="44.29964" lon="3.67021">
        <ele>714</ele>
        <time>2016-05-16T08:51:11Z</time>
      </trkpt>
      <trkpt lat="44.29966" lon="3.67032">
        <ele>714</ele>
        <time>2016-05-16T08:51:20Z</time>
      </trkpt>
      <trkpt lat="44.29969" lon="3.6704">
        <ele>716</ele>
        <time>2016-05-16T08:51:30Z</time>
      </trkpt>
      <trkpt lat="44.29971" lon="3.67045">
        <ele>719</ele>
        <time>2016-05-16T08:51:39Z</time>
      </trkpt>
      <trkpt lat="44.29975" lon="3.67051">
        <ele>721</ele>
        <time>2016-05-16T08:51:51Z</time>
      </trkpt>
      <trkpt lat="44.29979" lon="3.67044">
        <ele>721</ele>
        <time>2016-05-16T08:52:01Z</time>
      </trkpt>
      <trkpt lat="44.2998" lon="3.67036">
        <ele>721</ele>
        <time>2016-05-16T08:52:13Z</time>
      </trkpt>
      <trkpt lat="44.29984" lon="3.67028">
        <ele>721</ele>
        <time>2016-05-16T08:52:22Z</time>
      </trkpt>
      <trkpt lat="44.29984" lon="3.67021">
        <ele>721</ele>
        <time>2016-05-16T08:52:32Z</time>
      </trkpt>
      <trkpt lat="44.29987" lon="3.67012">
        <ele>721</ele>
        <time>2016-05-16T08:52:44Z</time>
      </trkpt>
      <trkpt lat="44.2999" lon="3.67014">
        <ele>721</ele>
        <time>2016-05-16T08:52:54Z</time>
      </trkpt>
      <trkpt lat="44.29996" lon="3.67018">
        <ele>722</ele>
        <time>2016-05-16T08:53:04Z</time>
      </trkpt>
      <trkpt lat="44.30003" lon="3.67026">
        <ele>724</ele>
        <time>2016-05-16T08:53:15Z</time>
      </trkpt>
      <trkpt lat="44.30002" lon="3.67031">
        <ele>725</ele>
        <time>2016-05-16T08:53:24Z</time>
      </trkpt>
      <trkpt lat="44.30005" lon="3.67043">
        <ele>727</ele>
        <time>2016-05-16T08:53:35Z</time>
      </trkpt>
      <trkpt lat="44.30007" lon="3.67049">
        <ele>728</ele>
        <time>2016-05-16T08:53:44Z</time>
      </trkpt>
      <trkpt lat="44.30012" lon="3.67045">
        <ele>728</ele>
        <time>2016-05-16T08:53:55Z</time>
      </trkpt>
      <trkpt lat="44.30015" lon="3.67045">
        <ele>730</ele>
        <time>2016-05-16T08:54:05Z</time>
      </trkpt>
      <trkpt lat="44.30019" lon="3.67045">
        <ele>735</ele>
        <time>2016-05-16T08:54:17Z</time>
      </trkpt>
      <trkpt lat="44.3002" lon="3.6705">
        <ele>739</ele>
        <time>2016-05-16T08:54:28Z</time>
      </trkpt>
      <trkpt lat="44.30021" lon="3.6706">
        <ele>741</ele>
        <time>2016-05-16T08:54:38Z</time>
      </trkpt>
      <trkpt lat="44.30028" lon="3.67063">
        <ele>741</ele>
        <time>2016-05-16T08:54:48Z</time>
      </trkpt>
      <trkpt lat="44.30033" lon="3.67063">
        <ele>741</ele>
        <time>2016-05-16T08:54:57Z</time>
      </trkpt>
      <trkpt lat="44.3004" lon="3.67066">
        <ele>742</ele>
        <time>2016-05-16T08:55:07Z</time>
      </trkpt>
      <trkpt lat="44.30047" lon="3.67063">
        <ele>742</ele>
        <time>2016-05-16T08:55:17Z</time>
      </trkpt>
      <trkpt lat="44.30053" lon="3.67062">
        <ele>740</ele>
        <time>2016-05-16T08:55:26Z</time>
      </trkpt>
      <trkpt lat="44.30058" lon="3.67064">
        <ele>740</ele>
        <time>2016-05-16T08:55:37Z</time>
      </trkpt>
      <trkpt lat="44.30062" lon="3.67066">
        <ele>743</ele>
        <time>2016-05-16T08:55:47Z</time>
      </trkpt>
      <trkpt lat="44.30067" lon="3.67066">
        <ele>746</ele>
        <time>2016-05-16T08:55:57Z</time>
      </trkpt>
      <trkpt lat="44.30068" lon="3.67068">
        <ele>747</ele>
        <time>2016-05-16T08:56:07Z</time>
      </trkpt>
      <trkpt lat="44.30068" lon="3.67076">
        <ele>753</ele>
        <time>2016-05-16T08:56:18Z</time>
      </trkpt>
      <trkpt lat="44.3007" lon="3.67085">
        <ele>757</ele>
        <time>2016-05-16T08:56:28Z</time>
      </trkpt>
      <trkpt lat="44.30071" lon="3.67092">
        <ele>757</ele>
        <time>2016-05-16T08:56:37Z</time>
      </trkpt>
      <trkpt lat="44.30074" lon="3.67097">
        <ele>758</ele>
        <time>2016-05-16T08:56:47Z</time>
      </trkpt>
      <trkpt lat="44.3008" lon="3.67097">
        <ele>758</ele>
        <time>2016-05-16T08:56:57Z</time>
      </trkpt>
      <trkpt lat="44.30088" lon="3.67098">
        <ele>758</ele>
        <time>2016-05-16T08:57:07Z</time>
      </trkpt>
      <trkpt lat="44.30095" lon="3.67099">
        <ele>758</ele>
        <time>2016-05-16T08:57:17Z</time>
      </trkpt>
      <trkpt lat="44.30101" lon="3.671">
        <ele>758</ele>
        <time>2016-05-16T08:57:29Z</time>
      </trkpt>
      <trkpt lat="44.301" lon="3.671">
        <ele>758</ele>
        <time>2016-05-16T08:57:53Z</time>
      </trkpt>
      <trkpt lat="44.301" lon="3.67098">
        <ele>758</ele>
        <time>2016-05-16T08:58:06Z</time>
      </trkpt>
      <trkpt lat="44.301" lon="3.67099">
        <ele>758</ele>
        <time>2016-05-16T08:58:17Z</time>
      </trkpt>
      <trkpt lat="44.301" lon="3.67097">
        <ele>759</ele>
        <time>2016-05-16T08:58:32Z</time>
      </trkpt>
      <trkpt lat="44.30099" lon="3.67097">
        <ele>759</ele>
        <time>2016-05-16T08:58:43Z</time>
      </trkpt>
      <trkpt lat="44.30098" lon="3.67094">
        <ele>762</ele>
        <time>2016-05-16T08:58:56Z</time>
      </trkpt>
      <trkpt lat="44.301" lon="3.67095">
        <ele>762</ele>
        <time>2016-05-16T08:59:06Z</time>
      </trkpt>
      <trkpt lat="44.30103" lon="3.67096">
        <ele>761</ele>
        <time>2016-05-16T08:59:19Z</time>
      </trkpt>
      <trkpt lat="44.30107" lon="3.67094">
        <ele>760</ele>
        <time>2016-05-16T08:59:30Z</time>
      </trkpt>
      <trkpt lat="44.30108" lon="3.67093">
        <ele>761</ele>
        <time>2016-05-16T08:59:39Z</time>
      </trkpt>
      <trkpt lat="44.30115" lon="3.67088">
        <ele>764</ele>
        <time>2016-05-16T08:59:50Z</time>
      </trkpt>
      <trkpt lat="44.30119" lon="3.67084">
        <ele>768</ele>
        <time>2016-05-16T09:00:02Z</time>
      </trkpt>
      <trkpt lat="44.30128" lon="3.67079">
        <ele>768</ele>
        <time>2016-05-16T09:00:11Z</time>
      </trkpt>
      <trkpt lat="44.30132" lon="3.67076">
        <ele>768</ele>
        <time>2016-05-16T09:00:22Z</time>
      </trkpt>
      <trkpt lat="44.30139" lon="3.67073">
        <ele>765</ele>
        <time>2016-05-16T09:00:32Z</time>
      </trkpt>
      <trkpt lat="44.30143" lon="3.67073">
        <ele>770</ele>
        <time>2016-05-16T09:00:47Z</time>
      </trkpt>
      <trkpt lat="44.3015" lon="3.67071">
        <ele>775</ele>
        <time>2016-05-16T09:00:57Z</time>
      </trkpt>
      <trkpt lat="44.30153" lon="3.67071">
        <ele>782</ele>
        <time>2016-05-16T09:01:06Z</time>
      </trkpt>
      <trkpt lat="44.30158" lon="3.67071">
        <ele>785</ele>
        <time>2016-05-16T09:01:18Z</time>
      </trkpt>
      <trkpt lat="44.30161" lon="3.67069">
        <ele>786</ele>
        <time>2016-05-16T09:01:30Z</time>
      </trkpt>
      <trkpt lat="44.30167" lon="3.67068">
        <ele>787</ele>
        <time>2016-05-16T09:01:41Z</time>
      </trkpt>
      <trkpt lat="44.30175" lon="3.67068">
        <ele>787</ele>
        <time>2016-05-16T09:01:53Z</time>
      </trkpt>
      <trkpt lat="44.30179" lon="3.67068">
        <ele>786</ele>
        <time>2016-05-16T09:02:03Z</time>
      </trkpt>
      <trkpt lat="44.3018" lon="3.67069">
        <ele>786</ele>
        <time>2016-05-16T09:02:12Z</time>
      </trkpt>
      <trkpt lat="44.30183" lon="3.67073">
        <ele>787</ele>
        <time>2016-05-16T09:02:22Z</time>
      </trkpt>
      <trkpt lat="44.30185" lon="3.67079">
        <ele>787</ele>
        <time>2016-05-16T09:02:32Z</time>
      </trkpt>
      <trkpt lat="44.30189" lon="3.67082">
        <ele>788</ele>
        <time>2016-05-16T09:02:41Z</time>
      </trkpt>
      <trkpt lat="44.30192" lon="3.67083">
        <ele>791</ele>
        <time>2016-05-16T09:02:52Z</time>
      </trkpt>
      <trkpt lat="44.30199" lon="3.67085">
        <ele>791</ele>
        <time>2016-05-16T09:03:02Z</time>
      </trkpt>
      <trkpt lat="44.30206" lon="3.67081">
        <ele>791</ele>
        <time>2016-05-16T09:03:12Z</time>
      </trkpt>
      <trkpt lat="44.3021" lon="3.67079">
        <ele>791</ele>
        <time>2016-05-16T09:03:21Z</time>
      </trkpt>
      <trkpt lat="44.30214" lon="3.67082">
        <ele>795</ele>
        <time>2016-05-16T09:03:36Z</time>
      </trkpt>
      <trkpt lat="44.30215" lon="3.67087">
        <ele>804</ele>
        <time>2016-05-16T09:03:46Z</time>
      </trkpt>
      <trkpt lat="44.30222" lon="3.67088">
        <ele>804</ele>
        <time>2016-05-16T09:03:57Z</time>
      </trkpt>
      <trkpt lat="44.30226" lon="3.67091">
        <ele>804</ele>
        <time>2016-05-16T09:04:06Z</time>
      </trkpt>
      <trkpt lat="44.30232" lon="3.67088">
        <ele>804</ele>
        <time>2016-05-16T09:04:17Z</time>
      </trkpt>
      <trkpt lat="44.30234" lon="3.67087">
        <ele>810</ele>
        <time>2016-05-16T09:04:27Z</time>
      </trkpt>
      <trkpt lat="44.30237" lon="3.67085">
        <ele>813</ele>
        <time>2016-05-16T09:04:36Z</time>
      </trkpt>
      <trkpt lat="44.30244" lon="3.67077">
        <ele>815</ele>
        <time>2016-05-16T09:04:48Z</time>
      </trkpt>
      <trkpt lat="44.30252" lon="3.67071">
        <ele>815</ele>
        <time>2016-05-16T09:04:59Z</time>
      </trkpt>
      <trkpt lat="44.30253" lon="3.67077">
        <ele>815</ele>
        <time>2016-05-16T09:05:09Z</time>
      </trkpt>
      <trkpt lat="44.30254" lon="3.67084">
        <ele>815</ele>
        <time>2016-05-16T09:05:18Z</time>
      </trkpt>
      <trkpt lat="44.3025" lon="3.67089">
        <ele>817</ele>
        <time>2016-05-16T09:05:28Z</time>
      </trkpt>
      <trkpt lat="44.30249" lon="3.67096">
        <ele>824</ele>
        <time>2016-05-16T09:05:37Z</time>
      </trkpt>
      <trkpt lat="44.30249" lon="3.67104">
        <ele>829</ele>
        <time>2016-05-16T09:05:47Z</time>
      </trkpt>
      <trkpt lat="44.30249" lon="3.67115">
        <ele>830</ele>
        <time>2016-05-16T09:05:57Z</time>
      </trkpt>
      <trkpt lat="44.30249" lon="3.67127">
        <ele>831</ele>
        <time>2016-05-16T09:06:06Z</time>
      </trkpt>
      <trkpt lat="44.30244" lon="3.67136">
        <ele>831</ele>
        <time>2016-05-16T09:06:16Z</time>
      </trkpt>
      <trkpt lat="44.30242" lon="3.67146">
        <ele>830</ele>
        <time>2016-05-16T09:06:25Z</time>
      </trkpt>
      <trkpt lat="44.30241" lon="3.67155">
        <ele>830</ele>
        <time>2016-05-16T09:06:36Z</time>
      </trkpt>
      <trkpt lat="44.30238" lon="3.67166">
        <ele>830</ele>
        <time>2016-05-16T09:06:46Z</time>
      </trkpt>
      <trkpt lat="44.30235" lon="3.67175">
        <ele>830</ele>
        <time>2016-05-16T09:06:56Z</time>
      </trkpt>
      <trkpt lat="44.3023" lon="3.67183">
        <ele>837</ele>
        <time>2016-05-16T09:07:07Z</time>
      </trkpt>
      <trkpt lat="44.30226" lon="3.67193">
        <ele>837</ele>
        <time>2016-05-16T09:07:16Z</time>
      </trkpt>
      <trkpt lat="44.30224" lon="3.672">
        <ele>837</ele>
        <time>2016-05-16T09:07:29Z</time>
      </trkpt>
      <trkpt lat="44.3023" lon="3.67205">
        <ele>837</ele>
        <time>2016-05-16T09:07:40Z</time>
      </trkpt>
      <trkpt lat="44.30236" lon="3.67205">
        <ele>837</ele>
        <time>2016-05-16T09:07:50Z</time>
      </trkpt>
      <trkpt lat="44.30241" lon="3.67202">
        <ele>837</ele>
        <time>2016-05-16T09:08:01Z</time>
      </trkpt>
      <trkpt lat="44.30246" lon="3.67197">
        <ele>838</ele>
        <time>2016-05-16T09:08:12Z</time>
      </trkpt>
      <trkpt lat="44.30252" lon="3.67194">
        <ele>840</ele>
        <time>2016-05-16T09:08:23Z</time>
      </trkpt>
      <trkpt lat="44.30256" lon="3.67188">
        <ele>842</ele>
        <time>2016-05-16T09:08:34Z</time>
      </trkpt>
      <trkpt lat="44.30262" lon="3.67182">
        <ele>845</ele>
        <time>2016-05-16T09:08:45Z</time>
      </trkpt>
      <trkpt lat="44.30267" lon="3.67175">
        <ele>846</ele>
        <time>2016-05-16T09:08:56Z</time>
      </trkpt>
      <trkpt lat="44.30272" lon="3.67168">
        <ele>849</ele>
        <time>2016-05-16T09:09:06Z</time>
      </trkpt>
      <trkpt lat="44.30278" lon="3.67161">
        <ele>849</ele>
        <time>2016-05-16T09:09:17Z</time>
      </trkpt>
      <trkpt lat="44.30285" lon="3.67152">
        <ele>849</ele>
        <time>2016-05-16T09:09:27Z</time>
      </trkpt>
      <trkpt lat="44.3029" lon="3.67143">
        <ele>851</ele>
        <time>2016-05-16T09:09:38Z</time>
      </trkpt>
      <trkpt lat="44.30296" lon="3.67139">
        <ele>851</ele>
        <time>2016-05-16T09:09:47Z</time>
      </trkpt>
      <trkpt lat="44.30301" lon="3.67134">
        <ele>852</ele>
        <time>2016-05-16T09:09:56Z</time>
      </trkpt>
      <trkpt lat="44.30307" lon="3.67129">
        <ele>854</ele>
        <time>2016-05-16T09:10:07Z</time>
      </trkpt>
      <trkpt lat="44.30313" lon="3.67125">
        <ele>855</ele>
        <time>2016-05-16T09:10:16Z</time>
      </trkpt>
      <trkpt lat="44.3032" lon="3.67122">
        <ele>855</ele>
        <time>2016-05-16T09:10:27Z</time>
      </trkpt>
      <trkpt lat="44.30324" lon="3.67117">
        <ele>857</ele>
        <time>2016-05-16T09:10:36Z</time>
      </trkpt>
      <trkpt lat="44.30331" lon="3.67109">
        <ele>859</ele>
        <time>2016-05-16T09:10:48Z</time>
      </trkpt>
      <trkpt lat="44.30337" lon="3.67104">
        <ele>861</ele>
        <time>2016-05-16T09:10:58Z</time>
      </trkpt>
      <trkpt lat="44.3034" lon="3.67099">
        <ele>863</ele>
        <time>2016-05-16T09:11:07Z</time>
      </trkpt>
      <trkpt lat="44.30345" lon="3.67095">
        <ele>864</ele>
        <time>2016-05-16T09:11:16Z</time>
      </trkpt>
      <trkpt lat="44.30352" lon="3.67091">
        <ele>866</ele>
        <time>2016-05-16T09:11:27Z</time>
      </trkpt>
      <trkpt lat="44.30355" lon="3.67094">
        <ele>866</ele>
        <time>2016-05-16T09:11:37Z</time>
      </trkpt>
      <trkpt lat="44.30358" lon="3.67097">
        <ele>868</ele>
        <time>2016-05-16T09:11:46Z</time>
      </trkpt>
      <trkpt lat="44.3036" lon="3.67096">
        <ele>870</ele>
        <time>2016-05-16T09:12:07Z</time>
      </trkpt>
      <trkpt lat="44.30362" lon="3.67093">
        <ele>870</ele>
        <time>2016-05-16T09:12:16Z</time>
      </trkpt>
      <trkpt lat="44.30364" lon="3.67094">
        <ele>871</ele>
        <time>2016-05-16T09:12:43Z</time>
      </trkpt>
      <trkpt lat="44.30363" lon="3.67095">
        <ele>871</ele>
        <time>2016-05-16T09:12:53Z</time>
      </trkpt>
      <trkpt lat="44.3036" lon="3.67097">
        <ele>871</ele>
        <time>2016-05-16T09:13:09Z</time>
      </trkpt>
      <trkpt lat="44.30361" lon="3.67095">
        <ele>871</ele>
        <time>2016-05-16T09:13:21Z</time>
      </trkpt>
      <trkpt lat="44.30364" lon="3.67091">
        <ele>871</ele>
        <time>2016-05-16T09:13:44Z</time>
      </trkpt>
      <trkpt lat="44.30365" lon="3.67089">
        <ele>871</ele>
        <time>2016-05-16T09:13:54Z</time>
      </trkpt>
      <trkpt lat="44.30368" lon="3.67084">
        <ele>871</ele>
        <time>2016-05-16T09:14:06Z</time>
      </trkpt>
      <trkpt lat="44.30372" lon="3.67076">
        <ele>871</ele>
        <time>2016-05-16T09:14:17Z</time>
      </trkpt>
      <trkpt lat="44.30373" lon="3.67072">
        <ele>871</ele>
        <time>2016-05-16T09:14:30Z</time>
      </trkpt>
      <trkpt lat="44.30378" lon="3.67071">
        <ele>871</ele>
        <time>2016-05-16T09:14:41Z</time>
      </trkpt>
      <trkpt lat="44.30382" lon="3.67067">
        <ele>874</ele>
        <time>2016-05-16T09:14:55Z</time>
      </trkpt>
      <trkpt lat="44.30386" lon="3.67062">
        <ele>876</ele>
        <time>2016-05-16T09:15:06Z</time>
      </trkpt>
      <trkpt lat="44.30391" lon="3.67056">
        <ele>879</ele>
        <time>2016-05-16T09:15:18Z</time>
      </trkpt>
      <trkpt lat="44.30395" lon="3.6705">
        <ele>880</ele>
        <time>2016-05-16T09:15:30Z</time>
      </trkpt>
      <trkpt lat="44.30397" lon="3.67045">
        <ele>880</ele>
        <time>2016-05-16T09:15:39Z</time>
      </trkpt>
      <trkpt lat="44.304" lon="3.67039">
        <ele>882</ele>
        <time>2016-05-16T09:15:49Z</time>
      </trkpt>
      <trkpt lat="44.30402" lon="3.67034">
        <ele>885</ele>
        <time>2016-05-16T09:15:58Z</time>
      </trkpt>
      <trkpt lat="44.30406" lon="3.67028">
        <ele>887</ele>
        <time>2016-05-16T09:16:10Z</time>
      </trkpt>
      <trkpt lat="44.30408" lon="3.67021">
        <ele>889</ele>
        <time>2016-05-16T09:16:22Z</time>
      </trkpt>
      <trkpt lat="44.30411" lon="3.67018">
        <ele>893</ele>
        <time>2016-05-16T09:16:31Z</time>
      </trkpt>
      <trkpt lat="44.30413" lon="3.67013">
        <ele>895</ele>
        <time>2016-05-16T09:16:41Z</time>
      </trkpt>
      <trkpt lat="44.30416" lon="3.67004">
        <ele>895</ele>
        <time>2016-05-16T09:16:51Z</time>
      </trkpt>
      <trkpt lat="44.3042" lon="3.66998">
        <ele>897</ele>
        <time>2016-05-16T09:17:02Z</time>
      </trkpt>
      <trkpt lat="44.30426" lon="3.66996">
        <ele>898</ele>
        <time>2016-05-16T09:17:13Z</time>
      </trkpt>
      <trkpt lat="44.30431" lon="3.66994">
        <ele>900</ele>
        <time>2016-05-16T09:17:23Z</time>
      </trkpt>
      <trkpt lat="44.30436" lon="3.67001">
        <ele>902</ele>
        <time>2016-05-16T09:17:32Z</time>
      </trkpt>
      <trkpt lat="44.30438" lon="3.67008">
        <ele>905</ele>
        <time>2016-05-16T09:17:41Z</time>
      </trkpt>
      <trkpt lat="44.3044" lon="3.67011">
        <ele>905</ele>
        <time>2016-05-16T09:18:01Z</time>
      </trkpt>
      <trkpt lat="44.30444" lon="3.67019">
        <ele>905</ele>
        <time>2016-05-16T09:18:11Z</time>
      </trkpt>
      <trkpt lat="44.30449" lon="3.6703">
        <ele>905</ele>
        <time>2016-05-16T09:18:21Z</time>
      </trkpt>
      <trkpt lat="44.30455" lon="3.67042">
        <ele>905</ele>
        <time>2016-05-16T09:18:31Z</time>
      </trkpt>
      <trkpt lat="44.30458" lon="3.67055">
        <ele>905</ele>
        <time>2016-05-16T09:18:41Z</time>
      </trkpt>
      <trkpt lat="44.3046" lon="3.67063">
        <ele>906</ele>
        <time>2016-05-16T09:19:13Z</time>
      </trkpt>
      <trkpt lat="44.30458" lon="3.67048">
        <ele>906</ele>
        <time>2016-05-16T09:19:23Z</time>
      </trkpt>
      <trkpt lat="44.30454" lon="3.67035">
        <ele>905</ele>
        <time>2016-05-16T09:19:34Z</time>
      </trkpt>
      <trkpt lat="44.30453" lon="3.67034">
        <ele>905</ele>
        <time>2016-05-16T09:19:46Z</time>
      </trkpt>
      <trkpt lat="44.30452" lon="3.6703">
        <ele>904</ele>
        <time>2016-05-16T09:20:08Z</time>
      </trkpt>
      <trkpt lat="44.30452" lon="3.6703">
        <ele>903</ele>
        <time>2016-05-16T09:20:33Z</time>
      </trkpt>
      <trkpt lat="44.30452" lon="3.67033">
        <ele>903</ele>
        <time>2016-05-16T09:20:49Z</time>
      </trkpt>
      <trkpt lat="44.30456" lon="3.67043">
        <ele>903</ele>
        <time>2016-05-16T09:20:59Z</time>
      </trkpt>
      <trkpt lat="44.30459" lon="3.67055">
        <ele>903</ele>
        <time>2016-05-16T09:21:08Z</time>
      </trkpt>
      <trkpt lat="44.30462" lon="3.67067">
        <ele>904</ele>
        <time>2016-05-16T09:21:18Z</time>
      </trkpt>
      <trkpt lat="44.30465" lon="3.67078">
        <ele>904</ele>
        <time>2016-05-16T09:21:29Z</time>
      </trkpt>
      <trkpt lat="44.30466" lon="3.67087">
        <ele>906</ele>
        <time>2016-05-16T09:21:40Z</time>
      </trkpt>
      <trkpt lat="44.30471" lon="3.67092">
        <ele>908</ele>
        <time>2016-05-16T09:21:49Z</time>
      </trkpt>
      <trkpt lat="44.30473" lon="3.67098">
        <ele>910</ele>
        <time>2016-05-16T09:21:58Z</time>
      </trkpt>
      <trkpt lat="44.30476" lon="3.67103">
        <ele>912</ele>
        <time>2016-05-16T09:22:07Z</time>
      </trkpt>
      <trkpt lat="44.30478" lon="3.67109">
        <ele>914</ele>
        <time>2016-05-16T09:22:17Z</time>
      </trkpt>
      <trkpt lat="44.30482" lon="3.67117">
        <ele>916</ele>
        <time>2016-05-16T09:22:28Z</time>
      </trkpt>
      <trkpt lat="44.30485" lon="3.67125">
        <ele>918</ele>
        <time>2016-05-16T09:22:40Z</time>
      </trkpt>
      <trkpt lat="44.30489" lon="3.6713">
        <ele>920</ele>
        <time>2016-05-16T09:22:49Z</time>
      </trkpt>
      <trkpt lat="44.30491" lon="3.67136">
        <ele>922</ele>
        <time>2016-05-16T09:22:59Z</time>
      </trkpt>
      <trkpt lat="44.30494" lon="3.67141">
        <ele>924</ele>
        <time>2016-05-16T09:23:08Z</time>
      </trkpt>
      <trkpt lat="44.30497" lon="3.67145">
        <ele>925</ele>
        <time>2016-05-16T09:23:18Z</time>
      </trkpt>
      <trkpt lat="44.30499" lon="3.6715">
        <ele>927</ele>
        <time>2016-05-16T09:23:27Z</time>
      </trkpt>
      <trkpt lat="44.30501" lon="3.67154">
        <ele>928</ele>
        <time>2016-05-16T09:23:36Z</time>
      </trkpt>
      <trkpt lat="44.30505" lon="3.67163">
        <ele>929</ele>
        <time>2016-05-16T09:23:48Z</time>
      </trkpt>
      <trkpt lat="44.30507" lon="3.67168">
        <ele>931</ele>
        <time>2016-05-16T09:23:57Z</time>
      </trkpt>
      <trkpt lat="44.3051" lon="3.67175">
        <ele>934</ele>
        <time>2016-05-16T09:24:08Z</time>
      </trkpt>
      <trkpt lat="44.30512" lon="3.67181">
        <ele>937</ele>
        <time>2016-05-16T09:24:17Z</time>
      </trkpt>
      <trkpt lat="44.30515" lon="3.67189">
        <ele>938</ele>
        <time>2016-05-16T09:24:27Z</time>
      </trkpt>
      <trkpt lat="44.30516" lon="3.67194">
        <ele>940</ele>
        <time>2016-05-16T09:24:36Z</time>
      </trkpt>
      <trkpt lat="44.30518" lon="3.67202">
        <ele>942</ele>
        <time>2016-05-16T09:24:46Z</time>
      </trkpt>
      <trkpt lat="44.30519" lon="3.67208">
        <ele>943</ele>
        <time>2016-05-16T09:24:56Z</time>
      </trkpt>
      <trkpt lat="44.30522" lon="3.67214">
        <ele>945</ele>
        <time>2016-05-16T09:25:06Z</time>
      </trkpt>
      <trkpt lat="44.30525" lon="3.67222">
        <ele>947</ele>
        <time>2016-05-16T09:25:17Z</time>
      </trkpt>
      <trkpt lat="44.30528" lon="3.67228">
        <ele>950</ele>
        <time>2016-05-16T09:25:28Z</time>
      </trkpt>
      <trkpt lat="44.30531" lon="3.67236">
        <ele>953</ele>
        <time>2016-05-16T09:25:39Z</time>
      </trkpt>
      <trkpt lat="44.30535" lon="3.67242">
        <ele>955</ele>
        <time>2016-05-16T09:25:48Z</time>
      </trkpt>
      <trkpt lat="44.30538" lon="3.67248">
        <ele>956</ele>
        <time>2016-05-16T09:25:57Z</time>
      </trkpt>
      <trkpt lat="44.30539" lon="3.67254">
        <ele>958</ele>
        <time>2016-05-16T09:26:06Z</time>
      </trkpt>
      <trkpt lat="44.30544" lon="3.67259">
        <ele>959</ele>
        <time>2016-05-16T09:26:16Z</time>
      </trkpt>
      <trkpt lat="44.3055" lon="3.67261">
        <ele>961</ele>
        <time>2016-05-16T09:26:28Z</time>
      </trkpt>
      <trkpt lat="44.30557" lon="3.67263">
        <ele>961</ele>
        <time>2016-05-16T09:26:38Z</time>
      </trkpt>
      <trkpt lat="44.30563" lon="3.67264">
        <ele>963</ele>
        <time>2016-05-16T09:26:49Z</time>
      </trkpt>
      <trkpt lat="44.30571" lon="3.67266">
        <ele>964</ele>
        <time>2016-05-16T09:26:59Z</time>
      </trkpt>
      <trkpt lat="44.30578" lon="3.6727">
        <ele>964</ele>
        <time>2016-05-16T09:27:09Z</time>
      </trkpt>
      <trkpt lat="44.30585" lon="3.67273">
        <ele>966</ele>
        <time>2016-05-16T09:27:19Z</time>
      </trkpt>
      <trkpt lat="44.30593" lon="3.67278">
        <ele>968</ele>
        <time>2016-05-16T09:27:29Z</time>
      </trkpt>
      <trkpt lat="44.30599" lon="3.67283">
        <ele>970</ele>
        <time>2016-05-16T09:27:40Z</time>
      </trkpt>
      <trkpt lat="44.30604" lon="3.67284">
        <ele>973</ele>
        <time>2016-05-16T09:27:49Z</time>
      </trkpt>
      <trkpt lat="44.30611" lon="3.67289">
        <ele>973</ele>
        <time>2016-05-16T09:27:59Z</time>
      </trkpt>
      <trkpt lat="44.30619" lon="3.67296">
        <ele>974</ele>
        <time>2016-05-16T09:28:09Z</time>
      </trkpt>
      <trkpt lat="44.30628" lon="3.67301">
        <ele>975</ele>
        <time>2016-05-16T09:28:19Z</time>
      </trkpt>
      <trkpt lat="44.30636" lon="3.67308">
        <ele>976</ele>
        <time>2016-05-16T09:28:29Z</time>
      </trkpt>
      <trkpt lat="44.30643" lon="3.67315">
        <ele>977</ele>
        <time>2016-05-16T09:28:39Z</time>
      </trkpt>
      <trkpt lat="44.30649" lon="3.6732">
        <ele>978</ele>
        <time>2016-05-16T09:28:48Z</time>
      </trkpt>
      <trkpt lat="44.30655" lon="3.67325">
        <ele>978</ele>
        <time>2016-05-16T09:28:58Z</time>
      </trkpt>
      <trkpt lat="44.30657" lon="3.67328">
        <ele>979</ele>
        <time>2016-05-16T09:29:17Z</time>
      </trkpt>
      <trkpt lat="44.30655" lon="3.67326">
        <ele>979</ele>
        <time>2016-05-16T09:29:26Z</time>
      </trkpt>
      <trkpt lat="44.30657" lon="3.67328">
        <ele>979</ele>
        <time>2016-05-16T09:29:38Z</time>
      </trkpt>
      <trkpt lat="44.30658" lon="3.6733">
        <ele>979</ele>
        <time>2016-05-16T09:29:57Z</time>
      </trkpt>
      <trkpt lat="44.30659" lon="3.67329">
        <ele>979</ele>
        <time>2016-05-16T09:30:12Z</time>
      </trkpt>
      <trkpt lat="44.30661" lon="3.67331">
        <ele>979</ele>
        <time>2016-05-16T09:30:23Z</time>
      </trkpt>
      <trkpt lat="44.30661" lon="3.67328">
        <ele>979</ele>
        <time>2016-05-16T09:30:59Z</time>
      </trkpt>
      <trkpt lat="44.30662" lon="3.67328">
        <ele>979</ele>
        <time>2016-05-16T09:31:46Z</time>
      </trkpt>
      <trkpt lat="44.30663" lon="3.6733">
        <ele>979</ele>
        <time>2016-05-16T09:32:29Z</time>
      </trkpt>
      <trkpt lat="44.30662" lon="3.67329">
        <ele>979</ele>
        <time>2016-05-16T09:33:26Z</time>
      </trkpt>
      <trkpt lat="44.30659" lon="3.67326">
        <ele>979</ele>
        <time>2016-05-16T09:33:38Z</time>
      </trkpt>
      <trkpt lat="44.30659" lon="3.67327">
        <ele>979</ele>
        <time>2016-05-16T09:33:47Z</time>
      </trkpt>
      <trkpt lat="44.30659" lon="3.67329">
        <ele>979</ele>
        <time>2016-05-16T09:34:18Z</time>
      </trkpt>
      <trkpt lat="44.3066" lon="3.6733">
        <ele>979</ele>
        <time>2016-05-16T09:34:34Z</time>
      </trkpt>
      <trkpt lat="44.30665" lon="3.67339">
        <ele>979</ele>
        <time>2016-05-16T09:34:43Z</time>
      </trkpt>
      <trkpt lat="44.3067" lon="3.67351">
        <ele>979</ele>
        <time>2016-05-16T09:34:53Z</time>
      </trkpt>
      <trkpt lat="44.30676" lon="3.67361">
        <ele>979</ele>
        <time>2016-05-16T09:35:02Z</time>
      </trkpt>
      <trkpt lat="44.3068" lon="3.67373">
        <ele>979</ele>
        <time>2016-05-16T09:35:11Z</time>
      </trkpt>
      <trkpt lat="44.30687" lon="3.67385">
        <ele>978</ele>
        <time>2016-05-16T09:35:21Z</time>
      </trkpt>
      <trkpt lat="44.30692" lon="3.674">
        <ele>977</ele>
        <time>2016-05-16T09:35:32Z</time>
      </trkpt>
      <trkpt lat="44.30695" lon="3.67413">
        <ele>975</ele>
        <time>2016-05-16T09:35:41Z</time>
      </trkpt>
      <trkpt lat="44.30699" lon="3.67427">
        <ele>975</ele>
        <time>2016-05-16T09:35:51Z</time>
      </trkpt>
      <trkpt lat="44.30705" lon="3.67443">
        <ele>975</ele>
        <time>2016-05-16T09:36:02Z</time>
      </trkpt>
      <trkpt lat="44.30709" lon="3.67455">
        <ele>975</ele>
        <time>2016-05-16T09:36:11Z</time>
      </trkpt>
      <trkpt lat="44.30714" lon="3.6747">
        <ele>975</ele>
        <time>2016-05-16T09:36:22Z</time>
      </trkpt>
      <trkpt lat="44.30718" lon="3.67481">
        <ele>975</ele>
        <time>2016-05-16T09:36:32Z</time>
      </trkpt>
      <trkpt lat="44.30723" lon="3.67492">
        <ele>975</ele>
        <time>2016-05-16T09:36:41Z</time>
      </trkpt>
      <trkpt lat="44.30728" lon="3.67506">
        <ele>975</ele>
        <time>2016-05-16T09:36:51Z</time>
      </trkpt>
      <trkpt lat="44.30733" lon="3.67519">
        <ele>974</ele>
        <time>2016-05-16T09:37:01Z</time>
      </trkpt>
      <trkpt lat="44.3074" lon="3.67532">
        <ele>972</ele>
        <time>2016-05-16T09:37:11Z</time>
      </trkpt>
      <trkpt lat="44.30747" lon="3.67544">
        <ele>970</ele>
        <time>2016-05-16T09:37:22Z</time>
      </trkpt>
      <trkpt lat="44.30753" lon="3.67555">
        <ele>968</ele>
        <time>2016-05-16T09:37:31Z</time>
      </trkpt>
      <trkpt lat="44.30758" lon="3.67568">
        <ele>966</ele>
        <time>2016-05-16T09:37:41Z</time>
      </trkpt>
      <trkpt lat="44.30764" lon="3.67582">
        <ele>964</ele>
        <time>2016-05-16T09:37:51Z</time>
      </trkpt>
      <trkpt lat="44.3077" lon="3.67596">
        <ele>964</ele>
        <time>2016-05-16T09:38:01Z</time>
      </trkpt>
      <trkpt lat="44.30776" lon="3.6761">
        <ele>964</ele>
        <time>2016-05-16T09:38:11Z</time>
      </trkpt>
      <trkpt lat="44.30781" lon="3.67624">
        <ele>964</ele>
        <time>2016-05-16T09:38:21Z</time>
      </trkpt>
      <trkpt lat="44.30785" lon="3.6764">
        <ele>964</ele>
        <time>2016-05-16T09:38:32Z</time>
      </trkpt>
      <trkpt lat="44.30789" lon="3.67653">
        <ele>964</ele>
        <time>2016-05-16T09:38:41Z</time>
      </trkpt>
      <trkpt lat="44.30792" lon="3.67667">
        <ele>964</ele>
        <time>2016-05-16T09:38:51Z</time>
      </trkpt>
      <trkpt lat="44.30793" lon="3.67681">
        <ele>964</ele>
        <time>2016-05-16T09:39:02Z</time>
      </trkpt>
      <trkpt lat="44.30794" lon="3.67692">
        <ele>964</ele>
        <time>2016-05-16T09:39:11Z</time>
      </trkpt>
      <trkpt lat="44.30795" lon="3.67705">
        <ele>965</ele>
        <time>2016-05-16T09:39:21Z</time>
      </trkpt>
      <trkpt lat="44.30797" lon="3.6772">
        <ele>966</ele>
        <time>2016-05-16T09:39:32Z</time>
      </trkpt>
      <trkpt lat="44.30799" lon="3.67733">
        <ele>966</ele>
        <time>2016-05-16T09:39:41Z</time>
      </trkpt>
      <trkpt lat="44.30802" lon="3.67744">
        <ele>966</ele>
        <time>2016-05-16T09:39:51Z</time>
      </trkpt>
      <trkpt lat="44.30805" lon="3.67758">
        <ele>966</ele>
        <time>2016-05-16T09:40:01Z</time>
      </trkpt>
      <trkpt lat="44.30807" lon="3.67773">
        <ele>966</ele>
        <time>2016-05-16T09:40:12Z</time>
      </trkpt>
      <trkpt lat="44.30811" lon="3.67786">
        <ele>965</ele>
        <time>2016-05-16T09:40:21Z</time>
      </trkpt>
      <trkpt lat="44.30814" lon="3.67801">
        <ele>965</ele>
        <time>2016-05-16T09:40:31Z</time>
      </trkpt>
      <trkpt lat="44.30817" lon="3.67817">
        <ele>964</ele>
        <time>2016-05-16T09:40:41Z</time>
      </trkpt>
      <trkpt lat="44.30821" lon="3.67833">
        <ele>962</ele>
        <time>2016-05-16T09:40:51Z</time>
      </trkpt>
      <trkpt lat="44.30825" lon="3.67847">
        <ele>959</ele>
        <time>2016-05-16T09:41:01Z</time>
      </trkpt>
      <trkpt lat="44.30828" lon="3.67863">
        <ele>957</ele>
        <time>2016-05-16T09:41:11Z</time>
      </trkpt>
      <trkpt lat="44.30833" lon="3.67878">
        <ele>956</ele>
        <time>2016-05-16T09:41:21Z</time>
      </trkpt>
      <trkpt lat="44.30836" lon="3.67894">
        <ele>954</ele>
        <time>2016-05-16T09:41:32Z</time>
      </trkpt>
      <trkpt lat="44.30837" lon="3.67901">
        <ele>953</ele>
        <time>2016-05-16T09:41:41Z</time>
      </trkpt>
      <trkpt lat="44.30836" lon="3.67914">
        <ele>952</ele>
        <time>2016-05-16T09:42:01Z</time>
      </trkpt>
      <trkpt lat="44.30836" lon="3.67916">
        <ele>951</ele>
        <time>2016-05-16T09:42:38Z</time>
      </trkpt>
      <trkpt lat="44.30835" lon="3.67921">
        <ele>951</ele>
        <time>2016-05-16T09:42:49Z</time>
      </trkpt>
      <trkpt lat="44.30835" lon="3.67933">
        <ele>950</ele>
        <time>2016-05-16T09:42:58Z</time>
      </trkpt>
      <trkpt lat="44.30833" lon="3.67944">
        <ele>948</ele>
        <time>2016-05-16T09:43:07Z</time>
      </trkpt>
      <trkpt lat="44.30829" lon="3.67956">
        <ele>945</ele>
        <time>2016-05-16T09:43:17Z</time>
      </trkpt>
      <trkpt lat="44.30825" lon="3.67966">
        <ele>942</ele>
        <time>2016-05-16T09:43:26Z</time>
      </trkpt>
      <trkpt lat="44.30825" lon="3.67969">
        <ele>942</ele>
        <time>2016-05-16T09:43:39Z</time>
      </trkpt>
      <trkpt lat="44.30824" lon="3.67977">
        <ele>942</ele>
        <time>2016-05-16T09:43:50Z</time>
      </trkpt>
      <trkpt lat="44.30822" lon="3.67988">
        <ele>942</ele>
        <time>2016-05-16T09:43:59Z</time>
      </trkpt>
      <trkpt lat="44.30822" lon="3.68001">
        <ele>942</ele>
        <time>2016-05-16T09:44:09Z</time>
      </trkpt>
      <trkpt lat="44.30824" lon="3.68009">
        <ele>942</ele>
        <time>2016-05-16T09:44:18Z</time>
      </trkpt>
      <trkpt lat="44.30824" lon="3.68023">
        <ele>942</ele>
        <time>2016-05-16T09:44:27Z</time>
      </trkpt>
      <trkpt lat="44.30825" lon="3.68038">
        <ele>942</ele>
        <time>2016-05-16T09:44:37Z</time>
      </trkpt>
      <trkpt lat="44.30823" lon="3.6805">
        <ele>941</ele>
        <time>2016-05-16T09:44:46Z</time>
      </trkpt>
      <trkpt lat="44.30823" lon="3.68065">
        <ele>941</ele>
        <time>2016-05-16T09:44:56Z</time>
      </trkpt>
      <trkpt lat="44.30823" lon="3.68079">
        <ele>941</ele>
        <time>2016-05-16T09:45:06Z</time>
      </trkpt>
      <trkpt lat="44.30822" lon="3.68095">
        <ele>941</ele>
        <time>2016-05-16T09:45:16Z</time>
      </trkpt>
      <trkpt lat="44.3082" lon="3.68109">
        <ele>941</ele>
        <time>2016-05-16T09:45:26Z</time>
      </trkpt>
      <trkpt lat="44.3082" lon="3.68122">
        <ele>941</ele>
        <time>2016-05-16T09:45:36Z</time>
      </trkpt>
      <trkpt lat="44.30814" lon="3.68136">
        <ele>941</ele>
        <time>2016-05-16T09:45:47Z</time>
      </trkpt>
      <trkpt lat="44.30808" lon="3.68147">
        <ele>941</ele>
        <time>2016-05-16T09:45:56Z</time>
      </trkpt>
      <trkpt lat="44.30802" lon="3.6816">
        <ele>941</ele>
        <time>2016-05-16T09:46:06Z</time>
      </trkpt>
      <trkpt lat="44.30798" lon="3.68174">
        <ele>941</ele>
        <time>2016-05-16T09:46:16Z</time>
      </trkpt>
      <trkpt lat="44.30794" lon="3.68187">
        <ele>940</ele>
        <time>2016-05-16T09:46:26Z</time>
      </trkpt>
      <trkpt lat="44.30787" lon="3.68198">
        <ele>939</ele>
        <time>2016-05-16T09:46:42Z</time>
      </trkpt>
      <trkpt lat="44.30785" lon="3.68199">
        <ele>938</ele>
        <time>2016-05-16T09:46:55Z</time>
      </trkpt>
      <trkpt lat="44.30785" lon="3.68201">
        <ele>937</ele>
        <time>2016-05-16T09:47:09Z</time>
      </trkpt>
      <trkpt lat="44.30786" lon="3.68197">
        <ele>937</ele>
        <time>2016-05-16T09:47:18Z</time>
      </trkpt>
      <trkpt lat="44.30788" lon="3.68195">
        <ele>937</ele>
        <time>2016-05-16T09:47:36Z</time>
      </trkpt>
      <trkpt lat="44.30789" lon="3.68193">
        <ele>937</ele>
        <time>2016-05-16T09:47:50Z</time>
      </trkpt>
      <trkpt lat="44.30788" lon="3.68195">
        <ele>937</ele>
        <time>2016-05-16T09:48:51Z</time>
      </trkpt>
      <trkpt lat="44.30787" lon="3.68194">
        <ele>937</ele>
        <time>2016-05-16T09:49:22Z</time>
      </trkpt>
      <trkpt lat="44.30787" lon="3.68192">
        <ele>937</ele>
        <time>2016-05-16T09:49:35Z</time>
      </trkpt>
      <trkpt lat="44.30789" lon="3.6819">
        <ele>937</ele>
        <time>2016-05-16T09:49:50Z</time>
      </trkpt>
      <trkpt lat="44.30788" lon="3.68194">
        <ele>937</ele>
        <time>2016-05-16T09:50:00Z</time>
      </trkpt>
      <trkpt lat="44.30786" lon="3.68196">
        <ele>937</ele>
        <time>2016-05-16T09:50:20Z</time>
      </trkpt>
      <trkpt lat="44.30785" lon="3.68196">
        <ele>938</ele>
        <time>2016-05-16T09:50:29Z</time>
      </trkpt>
      <trkpt lat="44.30779" lon="3.682">
        <ele>938</ele>
        <time>2016-05-16T09:50:38Z</time>
      </trkpt>
      <trkpt lat="44.3077" lon="3.68204">
        <ele>938</ele>
        <time>2016-05-16T09:50:47Z</time>
      </trkpt>
      <trkpt lat="44.30761" lon="3.6821">
        <ele>938</ele>
        <time>2016-05-16T09:50:57Z</time>
      </trkpt>
      <trkpt lat="44.30752" lon="3.68217">
        <ele>938</ele>
        <time>2016-05-16T09:51:07Z</time>
      </trkpt>
      <trkpt lat="44.30745" lon="3.68224">
        <ele>938</ele>
        <time>2016-05-16T09:51:16Z</time>
      </trkpt>
      <trkpt lat="44.30738" lon="3.68233">
        <ele>937</ele>
        <time>2016-05-16T09:51:26Z</time>
      </trkpt>
      <trkpt lat="44.30729" lon="3.68243">
        <ele>937</ele>
        <time>2016-05-16T09:51:36Z</time>
      </trkpt>
      <trkpt lat="44.30719" lon="3.68252">
        <ele>934</ele>
        <time>2016-05-16T09:51:46Z</time>
      </trkpt>
      <trkpt lat="44.3071" lon="3.6826">
        <ele>933</ele>
        <time>2016-05-16T09:51:57Z</time>
      </trkpt>
      <trkpt lat="44.30706" lon="3.68268">
        <ele>933</ele>
        <time>2016-05-16T09:52:06Z</time>
      </trkpt>
      <trkpt lat="44.30708" lon="3.68264">
        <ele>933</ele>
        <time>2016-05-16T09:52:16Z</time>
      </trkpt>
      <trkpt lat="44.30711" lon="3.68257">
        <ele>933</ele>
        <time>2016-05-16T09:52:30Z</time>
      </trkpt>
      <trkpt lat="44.3071" lon="3.68255">
        <ele>933</ele>
        <time>2016-05-16T09:52:43Z</time>
      </trkpt>
      <trkpt lat="44.30711" lon="3.68257">
        <ele>933</ele>
        <time>2016-05-16T09:53:06Z</time>
      </trkpt>
      <trkpt lat="44.3072" lon="3.68247">
        <ele>933</ele>
        <time>2016-05-16T09:53:16Z</time>
      </trkpt>
      <trkpt lat="44.3073" lon="3.68238">
        <ele>933</ele>
        <time>2016-05-16T09:53:26Z</time>
      </trkpt>
      <trkpt lat="44.30741" lon="3.68228">
        <ele>933</ele>
        <time>2016-05-16T09:53:36Z</time>
      </trkpt>
      <trkpt lat="44.3075" lon="3.68218">
        <ele>933</ele>
        <time>2016-05-16T09:53:46Z</time>
      </trkpt>
      <trkpt lat="44.30762" lon="3.68208">
        <ele>934</ele>
        <time>2016-05-16T09:53:56Z</time>
      </trkpt>
      <trkpt lat="44.30775" lon="3.68201">
        <ele>935</ele>
        <time>2016-05-16T09:54:06Z</time>
      </trkpt>
      <trkpt lat="44.30786" lon="3.68194">
        <ele>935</ele>
        <time>2016-05-16T09:54:16Z</time>
      </trkpt>
      <trkpt lat="44.30783" lon="3.68198">
        <ele>936</ele>
        <time>2016-05-16T09:54:26Z</time>
      </trkpt>
      <trkpt lat="44.30774" lon="3.68203">
        <ele>936</ele>
        <time>2016-05-16T09:54:35Z</time>
      </trkpt>
      <trkpt lat="44.30764" lon="3.68209">
        <ele>938</ele>
        <time>2016-05-16T09:54:44Z</time>
      </trkpt>
      <trkpt lat="44.3076" lon="3.6821">
        <ele>938</ele>
        <time>2016-05-16T09:54:53Z</time>
      </trkpt>
      <trkpt lat="44.30751" lon="3.68217">
        <ele>938</ele>
        <time>2016-05-16T09:55:02Z</time>
      </trkpt>
      <trkpt lat="44.30742" lon="3.68229">
        <ele>938</ele>
        <time>2016-05-16T09:55:12Z</time>
      </trkpt>
      <trkpt lat="44.30732" lon="3.68239">
        <ele>938</ele>
        <time>2016-05-16T09:55:22Z</time>
      </trkpt>
      <trkpt lat="44.30723" lon="3.6825">
        <ele>937</ele>
        <time>2016-05-16T09:55:31Z</time>
      </trkpt>
      <trkpt lat="44.30713" lon="3.68258">
        <ele>936</ele>
        <time>2016-05-16T09:55:41Z</time>
      </trkpt>
      <trkpt lat="44.30708" lon="3.68265">
        <ele>934</ele>
        <time>2016-05-16T09:55:52Z</time>
      </trkpt>
      <trkpt lat="44.30705" lon="3.68272">
        <ele>934</ele>
        <time>2016-05-16T09:56:02Z</time>
      </trkpt>
      <trkpt lat="44.30704" lon="3.68275">
        <ele>931</ele>
        <time>2016-05-16T09:56:13Z</time>
      </trkpt>
      <trkpt lat="44.30699" lon="3.68281">
        <ele>929</ele>
        <time>2016-05-16T09:56:28Z</time>
      </trkpt>
      <trkpt lat="44.30694" lon="3.68293">
        <ele>929</ele>
        <time>2016-05-16T09:56:37Z</time>
      </trkpt>
      <trkpt lat="44.30687" lon="3.68305">
        <ele>929</ele>
        <time>2016-05-16T09:56:47Z</time>
      </trkpt>
      <trkpt lat="44.3068" lon="3.68319">
        <ele>929</ele>
        <time>2016-05-16T09:56:57Z</time>
      </trkpt>
      <trkpt lat="44.30673" lon="3.6833">
        <ele>929</ele>
        <time>2016-05-16T09:57:07Z</time>
      </trkpt>
      <trkpt lat="44.30667" lon="3.6834">
        <ele>932</ele>
        <time>2016-05-16T09:57:17Z</time>
      </trkpt>
      <trkpt lat="44.3066" lon="3.68347">
        <ele>935</ele>
        <time>2016-05-16T09:57:26Z</time>
      </trkpt>
      <trkpt lat="44.30651" lon="3.68359">
        <ele>937</ele>
        <time>2016-05-16T09:57:36Z</time>
      </trkpt>
      <trkpt lat="44.30643" lon="3.68373">
        <ele>937</ele>
        <time>2016-05-16T09:57:46Z</time>
      </trkpt>
      <trkpt lat="44.30636" lon="3.68387">
        <ele>937</ele>
        <time>2016-05-16T09:57:56Z</time>
      </trkpt>
      <trkpt lat="44.30628" lon="3.68401">
        <ele>939</ele>
        <time>2016-05-16T09:58:06Z</time>
      </trkpt>
      <trkpt lat="44.3062" lon="3.68415">
        <ele>941</ele>
        <time>2016-05-16T09:58:16Z</time>
      </trkpt>
      <trkpt lat="44.30614" lon="3.6843">
        <ele>942</ele>
        <time>2016-05-16T09:58:25Z</time>
      </trkpt>
      <trkpt lat="44.30607" lon="3.68445">
        <ele>943</ele>
        <time>2016-05-16T09:58:34Z</time>
      </trkpt>
      <trkpt lat="44.30598" lon="3.68458">
        <ele>942</ele>
        <time>2016-05-16T09:58:43Z</time>
      </trkpt>
      <trkpt lat="44.30592" lon="3.68466">
        <ele>941</ele>
        <time>2016-05-16T09:58:52Z</time>
      </trkpt>
      <trkpt lat="44.30582" lon="3.68476">
        <ele>941</ele>
        <time>2016-05-16T09:59:02Z</time>
      </trkpt>
      <trkpt lat="44.30571" lon="3.68486">
        <ele>940</ele>
        <time>2016-05-16T09:59:11Z</time>
      </trkpt>
      <trkpt lat="44.30562" lon="3.68495">
        <ele>938</ele>
        <time>2016-05-16T09:59:20Z</time>
      </trkpt>
      <trkpt lat="44.30552" lon="3.68507">
        <ele>938</ele>
        <time>2016-05-16T09:59:29Z</time>
      </trkpt>
      <trkpt lat="44.30541" lon="3.6852">
        <ele>938</ele>
        <time>2016-05-16T09:59:39Z</time>
      </trkpt>
      <trkpt lat="44.30533" lon="3.68531">
        <ele>941</ele>
        <time>2016-05-16T09:59:48Z</time>
      </trkpt>
      <trkpt lat="44.30526" lon="3.68538">
        <ele>943</ele>
        <time>2016-05-16T09:59:58Z</time>
      </trkpt>
      <trkpt lat="44.30516" lon="3.6855">
        <ele>946</ele>
        <time>2016-05-16T10:00:08Z</time>
      </trkpt>
      <trkpt lat="44.30502" lon="3.68551">
        <ele>946</ele>
        <time>2016-05-16T10:00:17Z</time>
      </trkpt>
      <trkpt lat="44.30488" lon="3.68543">
        <ele>944</ele>
        <time>2016-05-16T10:00:27Z</time>
      </trkpt>
      <trkpt lat="44.30478" lon="3.68534">
        <ele>943</ele>
        <time>2016-05-16T10:00:36Z</time>
      </trkpt>
      <trkpt lat="44.30465" lon="3.68523">
        <ele>941</ele>
        <time>2016-05-16T10:00:45Z</time>
      </trkpt>
      <trkpt lat="44.30453" lon="3.68514">
        <ele>940</ele>
        <time>2016-05-16T10:00:54Z</time>
      </trkpt>
      <trkpt lat="44.30442" lon="3.68506">
        <ele>939</ele>
        <time>2016-05-16T10:01:04Z</time>
      </trkpt>
      <trkpt lat="44.3043" lon="3.68504">
        <ele>939</ele>
        <time>2016-05-16T10:01:13Z</time>
      </trkpt>
      <trkpt lat="44.30417" lon="3.68507">
        <ele>939</ele>
        <time>2016-05-16T10:01:22Z</time>
      </trkpt>
      <trkpt lat="44.30404" lon="3.68511">
        <ele>943</ele>
        <time>2016-05-16T10:01:31Z</time>
      </trkpt>
      <trkpt lat="44.30395" lon="3.68519">
        <ele>947</ele>
        <time>2016-05-16T10:01:40Z</time>
      </trkpt>
      <trkpt lat="44.30386" lon="3.68534">
        <ele>948</ele>
        <time>2016-05-16T10:01:50Z</time>
      </trkpt>
      <trkpt lat="44.30382" lon="3.68549">
        <ele>949</ele>
        <time>2016-05-16T10:01:59Z</time>
      </trkpt>
      <trkpt lat="44.30383" lon="3.68564">
        <ele>949</ele>
        <time>2016-05-16T10:02:08Z</time>
      </trkpt>
      <trkpt lat="44.30386" lon="3.68579">
        <ele>949</ele>
        <time>2016-05-16T10:02:17Z</time>
      </trkpt>
      <trkpt lat="44.30392" lon="3.68593">
        <ele>949</ele>
        <time>2016-05-16T10:02:26Z</time>
      </trkpt>
      <trkpt lat="44.30399" lon="3.68607">
        <ele>949</ele>
        <time>2016-05-16T10:02:35Z</time>
      </trkpt>
      <trkpt lat="44.30404" lon="3.68622">
        <ele>949</ele>
        <time>2016-05-16T10:02:44Z</time>
      </trkpt>
      <trkpt lat="44.30411" lon="3.68636">
        <ele>949</ele>
        <time>2016-05-16T10:02:53Z</time>
      </trkpt>
      <trkpt lat="44.30413" lon="3.6865">
        <ele>949</ele>
        <time>2016-05-16T10:03:02Z</time>
      </trkpt>
      <trkpt lat="44.30413" lon="3.68667">
        <ele>949</ele>
        <time>2016-05-16T10:03:11Z</time>
      </trkpt>
      <trkpt lat="44.3041" lon="3.68686">
        <ele>949</ele>
        <time>2016-05-16T10:03:21Z</time>
      </trkpt>
      <trkpt lat="44.30408" lon="3.68705">
        <ele>949</ele>
        <time>2016-05-16T10:03:31Z</time>
      </trkpt>
      <trkpt lat="44.30406" lon="3.68724">
        <ele>949</ele>
        <time>2016-05-16T10:03:41Z</time>
      </trkpt>
      <trkpt lat="44.30402" lon="3.68741">
        <ele>949</ele>
        <time>2016-05-16T10:03:50Z</time>
      </trkpt>
      <trkpt lat="44.30398" lon="3.68758">
        <ele>949</ele>
        <time>2016-05-16T10:03:59Z</time>
      </trkpt>
      <trkpt lat="44.30394" lon="3.68774">
        <ele>949</ele>
        <time>2016-05-16T10:04:08Z</time>
      </trkpt>
      <trkpt lat="44.30386" lon="3.68788">
        <ele>949</ele>
        <time>2016-05-16T10:04:17Z</time>
      </trkpt>
      <trkpt lat="44.30379" lon="3.688">
        <ele>949</ele>
        <time>2016-05-16T10:04:27Z</time>
      </trkpt>
      <trkpt lat="44.3037" lon="3.68808">
        <ele>949</ele>
        <time>2016-05-16T10:04:36Z</time>
      </trkpt>
      <trkpt lat="44.30362" lon="3.6882">
        <ele>949</ele>
        <time>2016-05-16T10:04:45Z</time>
      </trkpt>
      <trkpt lat="44.30351" lon="3.68833">
        <ele>949</ele>
        <time>2016-05-16T10:04:54Z</time>
      </trkpt>
      <trkpt lat="44.3034" lon="3.68845">
        <ele>946</ele>
        <time>2016-05-16T10:05:03Z</time>
      </trkpt>
      <trkpt lat="44.30328" lon="3.68855">
        <ele>946</ele>
        <time>2016-05-16T10:05:12Z</time>
      </trkpt>
      <trkpt lat="44.30316" lon="3.68865">
        <ele>946</ele>
        <time>2016-05-16T10:05:22Z</time>
      </trkpt>
      <trkpt lat="44.30306" lon="3.68876">
        <ele>946</ele>
        <time>2016-05-16T10:05:31Z</time>
      </trkpt>
      <trkpt lat="44.30296" lon="3.68887">
        <ele>945</ele>
        <time>2016-05-16T10:05:40Z</time>
      </trkpt>
      <trkpt lat="44.30287" lon="3.68898">
        <ele>945</ele>
        <time>2016-05-16T10:05:49Z</time>
      </trkpt>
      <trkpt lat="44.30278" lon="3.68911">
        <ele>945</ele>
        <time>2016-05-16T10:05:58Z</time>
      </trkpt>
      <trkpt lat="44.30266" lon="3.68921">
        <ele>945</ele>
        <time>2016-05-16T10:06:07Z</time>
      </trkpt>
      <trkpt lat="44.30257" lon="3.68932">
        <ele>945</ele>
        <time>2016-05-16T10:06:16Z</time>
      </trkpt>
      <trkpt lat="44.30245" lon="3.68944">
        <ele>945</ele>
        <time>2016-05-16T10:06:27Z</time>
      </trkpt>
      <trkpt lat="44.30236" lon="3.68957">
        <ele>945</ele>
        <time>2016-05-16T10:06:36Z</time>
      </trkpt>
      <trkpt lat="44.30227" lon="3.68973">
        <ele>945</ele>
        <time>2016-05-16T10:06:46Z</time>
      </trkpt>
      <trkpt lat="44.30219" lon="3.68988">
        <ele>944</ele>
        <time>2016-05-16T10:06:56Z</time>
      </trkpt>
      <trkpt lat="44.30215" lon="3.69004">
        <ele>944</ele>
        <time>2016-05-16T10:07:06Z</time>
      </trkpt>
      <trkpt lat="44.30211" lon="3.69021">
        <ele>944</ele>
        <time>2016-05-16T10:07:16Z</time>
      </trkpt>
      <trkpt lat="44.30206" lon="3.69035">
        <ele>944</ele>
        <time>2016-05-16T10:07:25Z</time>
      </trkpt>
      <trkpt lat="44.30201" lon="3.6905">
        <ele>944</ele>
        <time>2016-05-16T10:07:35Z</time>
      </trkpt>
      <trkpt lat="44.30199" lon="3.69068">
        <ele>944</ele>
        <time>2016-05-16T10:07:44Z</time>
      </trkpt>
      <trkpt lat="44.30196" lon="3.69086">
        <ele>944</ele>
        <time>2016-05-16T10:07:53Z</time>
      </trkpt>
      <trkpt lat="44.30193" lon="3.69101">
        <ele>944</ele>
        <time>2016-05-16T10:08:02Z</time>
      </trkpt>
      <trkpt lat="44.30193" lon="3.6912">
        <ele>943</ele>
        <time>2016-05-16T10:08:11Z</time>
      </trkpt>
      <trkpt lat="44.30192" lon="3.69136">
        <ele>940</ele>
        <time>2016-05-16T10:08:20Z</time>
      </trkpt>
      <trkpt lat="44.30197" lon="3.69144">
        <ele>937</ele>
        <time>2016-05-16T10:08:29Z</time>
      </trkpt>
      <trkpt lat="44.30195" lon="3.69164">
        <ele>937</ele>
        <time>2016-05-16T10:08:38Z</time>
      </trkpt>
      <trkpt lat="44.30185" lon="3.69177">
        <ele>937</ele>
        <time>2016-05-16T10:08:47Z</time>
      </trkpt>
      <trkpt lat="44.30183" lon="3.69191">
        <ele>939</ele>
        <time>2016-05-16T10:08:56Z</time>
      </trkpt>
      <trkpt lat="44.30179" lon="3.69204">
        <ele>940</ele>
        <time>2016-05-16T10:09:05Z</time>
      </trkpt>
      <trkpt lat="44.30174" lon="3.69218">
        <ele>941</ele>
        <time>2016-05-16T10:09:14Z</time>
      </trkpt>
      <trkpt lat="44.30171" lon="3.69223">
        <ele>942</ele>
        <time>2016-05-16T10:09:30Z</time>
      </trkpt>
      <trkpt lat="44.30171" lon="3.69221">
        <ele>944</ele>
        <time>2016-05-16T10:09:40Z</time>
      </trkpt>
      <trkpt lat="44.30172" lon="3.69222">
        <ele>945</ele>
        <time>2016-05-16T10:09:54Z</time>
      </trkpt>
      <trkpt lat="44.3017" lon="3.69224">
        <ele>945</ele>
        <time>2016-05-16T10:10:03Z</time>
      </trkpt>
      <trkpt lat="44.30168" lon="3.69224">
        <ele>940</ele>
        <time>2016-05-16T10:10:12Z</time>
      </trkpt>
      <trkpt lat="44.30166" lon="3.69222">
        <ele>939</ele>
        <time>2016-05-16T10:10:23Z</time>
      </trkpt>
      <trkpt lat="44.30165" lon="3.69221">
        <ele>939</ele>
        <time>2016-05-16T10:10:35Z</time>
      </trkpt>
      <trkpt lat="44.30167" lon="3.69216">
        <ele>939</ele>
        <time>2016-05-16T10:10:49Z</time>
      </trkpt>
      <trkpt lat="44.3017" lon="3.69217">
        <ele>940</ele>
        <time>2016-05-16T10:11:01Z</time>
      </trkpt>
      <trkpt lat="44.3017" lon="3.69216">
        <ele>948</ele>
        <time>2016-05-16T10:11:13Z</time>
      </trkpt>
      <trkpt lat="44.30169" lon="3.69216">
        <ele>950</ele>
        <time>2016-05-16T10:11:22Z</time>
      </trkpt>
      <trkpt lat="44.30169" lon="3.69218">
        <ele>949</ele>
        <time>2016-05-16T10:11:32Z</time>
      </trkpt>
      <trkpt lat="44.30171" lon="3.69221">
        <ele>949</ele>
        <time>2016-05-16T10:11:45Z</time>
      </trkpt>
      <trkpt lat="44.30173" lon="3.69222">
        <ele>949</ele>
        <time>2016-05-16T10:11:59Z</time>
      </trkpt>
      <trkpt lat="44.30173" lon="3.6922">
        <ele>951</ele>
        <time>2016-05-16T10:12:10Z</time>
      </trkpt>
      <trkpt lat="44.30175" lon="3.69221">
        <ele>951</ele>
        <time>2016-05-16T10:12:20Z</time>
      </trkpt>
      <trkpt lat="44.30173" lon="3.69219">
        <ele>951</ele>
        <time>2016-05-16T10:12:29Z</time>
      </trkpt>
      <trkpt lat="44.30172" lon="3.69222">
        <ele>951</ele>
        <time>2016-05-16T10:12:39Z</time>
      </trkpt>
      <trkpt lat="44.30178" lon="3.69222">
        <ele>951</ele>
        <time>2016-05-16T10:12:49Z</time>
      </trkpt>
      <trkpt lat="44.30179" lon="3.69225">
        <ele>950</ele>
        <time>2016-05-16T10:13:03Z</time>
      </trkpt>
      <trkpt lat="44.30179" lon="3.69231">
        <ele>947</ele>
        <time>2016-05-16T10:13:20Z</time>
      </trkpt>
      <trkpt lat="44.30172" lon="3.69229">
        <ele>941</ele>
        <time>2016-05-16T10:13:29Z</time>
      </trkpt>
      <trkpt lat="44.30172" lon="3.6923">
        <ele>941</ele>
        <time>2016-05-16T10:13:41Z</time>
      </trkpt>
      <trkpt lat="44.30171" lon="3.69237">
        <ele>943</ele>
        <time>2016-05-16T10:13:50Z</time>
      </trkpt>
      <trkpt lat="44.30169" lon="3.69239">
        <ele>943</ele>
        <time>2016-05-16T10:14:00Z</time>
      </trkpt>
      <trkpt lat="44.30168" lon="3.69239">
        <ele>942</ele>
        <time>2016-05-16T10:14:17Z</time>
      </trkpt>
      <trkpt lat="44.30168" lon="3.69239">
        <ele>936</ele>
        <time>2016-05-16T10:14:29Z</time>
      </trkpt>
      <trkpt lat="44.3017" lon="3.69237">
        <ele>937</ele>
        <time>2016-05-16T10:14:38Z</time>
      </trkpt>
      <trkpt lat="44.30168" lon="3.69237">
        <ele>942</ele>
        <time>2016-05-16T10:14:48Z</time>
      </trkpt>
      <trkpt lat="44.30168" lon="3.69235">
        <ele>942</ele>
        <time>2016-05-16T10:14:59Z</time>
      </trkpt>
      <trkpt lat="44.30169" lon="3.69234">
        <ele>942</ele>
        <time>2016-05-16T10:15:18Z</time>
      </trkpt>
      <trkpt lat="44.3017" lon="3.69235">
        <ele>948</ele>
        <time>2016-05-16T10:15:48Z</time>
      </trkpt>
      <trkpt lat="44.30167" lon="3.69235">
        <ele>952</ele>
        <time>2016-05-16T10:15:58Z</time>
      </trkpt>
      <trkpt lat="44.30167" lon="3.69236">
        <ele>951</ele>
        <time>2016-05-16T10:16:07Z</time>
      </trkpt>
      <trkpt lat="44.30165" lon="3.69233">
        <ele>949</ele>
        <time>2016-05-16T10:16:18Z</time>
      </trkpt>
      <trkpt lat="44.30166" lon="3.6923">
        <ele>949</ele>
        <time>2016-05-16T10:16:27Z</time>
      </trkpt>
      <trkpt lat="44.30166" lon="3.6923">
        <ele>951</ele>
        <time>2016-05-16T10:16:42Z</time>
      </trkpt>
      <trkpt lat="44.30172" lon="3.69233">
        <ele>953</ele>
        <time>2016-05-16T10:17:02Z</time>
      </trkpt>
      <trkpt lat="44.30176" lon="3.69229">
        <ele>953</ele>
        <time>2016-05-16T10:17:13Z</time>
      </trkpt>
      <trkpt lat="44.30175" lon="3.69224">
        <ele>948</ele>
        <time>2016-05-16T10:17:26Z</time>
      </trkpt>
      <trkpt lat="44.30167" lon="3.69231">
        <ele>945</ele>
        <time>2016-05-16T10:17:36Z</time>
      </trkpt>
      <trkpt lat="44.30164" lon="3.69235">
        <ele>941</ele>
        <time>2016-05-16T10:17:47Z</time>
      </trkpt>
      <trkpt lat="44.30159" lon="3.6924">
        <ele>941</ele>
        <time>2016-05-16T10:17:57Z</time>
      </trkpt>
      <trkpt lat="44.30154" lon="3.69246">
        <ele>941</ele>
        <time>2016-05-16T10:18:07Z</time>
      </trkpt>
      <trkpt lat="44.30147" lon="3.69257">
        <ele>945</ele>
        <time>2016-05-16T10:18:17Z</time>
      </trkpt>
      <trkpt lat="44.30138" lon="3.69264">
        <ele>946</ele>
        <time>2016-05-16T10:18:27Z</time>
      </trkpt>
      <trkpt lat="44.30131" lon="3.69277">
        <ele>946</ele>
        <time>2016-05-16T10:18:38Z</time>
      </trkpt>
      <trkpt lat="44.30125" lon="3.69292">
        <ele>946</ele>
        <time>2016-05-16T10:18:48Z</time>
      </trkpt>
      <trkpt lat="44.30117" lon="3.69296">
        <ele>944</ele>
        <time>2016-05-16T10:18:59Z</time>
      </trkpt>
      <trkpt lat="44.30114" lon="3.69299">
        <ele>944</ele>
        <time>2016-05-16T10:19:13Z</time>
      </trkpt>
      <trkpt lat="44.30106" lon="3.69303">
        <ele>944</ele>
        <time>2016-05-16T10:19:23Z</time>
      </trkpt>
      <trkpt lat="44.30097" lon="3.69311">
        <ele>944</ele>
        <time>2016-05-16T10:19:33Z</time>
      </trkpt>
      <trkpt lat="44.30089" lon="3.69319">
        <ele>944</ele>
        <time>2016-05-16T10:19:43Z</time>
      </trkpt>
      <trkpt lat="44.30085" lon="3.69321">
        <ele>944</ele>
        <time>2016-05-16T10:19:54Z</time>
      </trkpt>
      <trkpt lat="44.3008" lon="3.69333">
        <ele>944</ele>
        <time>2016-05-16T10:20:04Z</time>
      </trkpt>
      <trkpt lat="44.30074" lon="3.69336">
        <ele>939</ele>
        <time>2016-05-16T10:20:16Z</time>
      </trkpt>
      <trkpt lat="44.30066" lon="3.69334">
        <ele>938</ele>
        <time>2016-05-16T10:20:28Z</time>
      </trkpt>
      <trkpt lat="44.30056" lon="3.69334">
        <ele>941</ele>
        <time>2016-05-16T10:20:37Z</time>
      </trkpt>
      <trkpt lat="44.30047" lon="3.69327">
        <ele>950</ele>
        <time>2016-05-16T10:20:46Z</time>
      </trkpt>
      <trkpt lat="44.30045" lon="3.69324">
        <ele>955</ele>
        <time>2016-05-16T10:20:56Z</time>
      </trkpt>
      <trkpt lat="44.30042" lon="3.69326">
        <ele>958</ele>
        <time>2016-05-16T10:21:06Z</time>
      </trkpt>
      <trkpt lat="44.30035" lon="3.69323">
        <ele>958</ele>
        <time>2016-05-16T10:21:16Z</time>
      </trkpt>
      <trkpt lat="44.3003" lon="3.69322">
        <ele>952</ele>
        <time>2016-05-16T10:21:26Z</time>
      </trkpt>
      <trkpt lat="44.30021" lon="3.69321">
        <ele>952</ele>
        <time>2016-05-16T10:21:39Z</time>
      </trkpt>
      <trkpt lat="44.30013" lon="3.69324">
        <ele>952</ele>
        <time>2016-05-16T10:21:48Z</time>
      </trkpt>
      <trkpt lat="44.30001" lon="3.69326">
        <ele>954</ele>
        <time>2016-05-16T10:21:58Z</time>
      </trkpt>
      <trkpt lat="44.29992" lon="3.69333">
        <ele>954</ele>
        <time>2016-05-16T10:22:08Z</time>
      </trkpt>
      <trkpt lat="44.29984" lon="3.6933">
        <ele>954</ele>
        <time>2016-05-16T10:22:17Z</time>
      </trkpt>
      <trkpt lat="44.29977" lon="3.69326">
        <ele>954</ele>
        <time>2016-05-16T10:22:27Z</time>
      </trkpt>
      <trkpt lat="44.29969" lon="3.6932">
        <ele>956</ele>
        <time>2016-05-16T10:22:38Z</time>
      </trkpt>
      <trkpt lat="44.29963" lon="3.69313">
        <ele>957</ele>
        <time>2016-05-16T10:22:48Z</time>
      </trkpt>
      <trkpt lat="44.29959" lon="3.69304">
        <ele>959</ele>
        <time>2016-05-16T10:22:58Z</time>
      </trkpt>
      <trkpt lat="44.29949" lon="3.69296">
        <ele>957</ele>
        <time>2016-05-16T10:23:07Z</time>
      </trkpt>
      <trkpt lat="44.29942" lon="3.69288">
        <ele>957</ele>
        <time>2016-05-16T10:23:17Z</time>
      </trkpt>
      <trkpt lat="44.29931" lon="3.69283">
        <ele>957</ele>
        <time>2016-05-16T10:23:27Z</time>
      </trkpt>
      <trkpt lat="44.2992" lon="3.69274">
        <ele>957</ele>
        <time>2016-05-16T10:23:38Z</time>
      </trkpt>
      <trkpt lat="44.29914" lon="3.69265">
        <ele>957</ele>
        <time>2016-05-16T10:23:48Z</time>
      </trkpt>
      <trkpt lat="44.2991" lon="3.69262">
        <ele>957</ele>
        <time>2016-05-16T10:23:58Z</time>
      </trkpt>
      <trkpt lat="44.29899" lon="3.69257">
        <ele>957</ele>
        <time>2016-05-16T10:24:08Z</time>
      </trkpt>
      <trkpt lat="44.29889" lon="3.6925">
        <ele>957</ele>
        <time>2016-05-16T10:24:17Z</time>
      </trkpt>
      <trkpt lat="44.2988" lon="3.69244">
        <ele>957</ele>
        <time>2016-05-16T10:24:27Z</time>
      </trkpt>
      <trkpt lat="44.2987" lon="3.6924">
        <ele>957</ele>
        <time>2016-05-16T10:24:37Z</time>
      </trkpt>
      <trkpt lat="44.29869" lon="3.69239">
        <ele>953</ele>
        <time>2016-05-16T10:24:53Z</time>
      </trkpt>
      <trkpt lat="44.29859" lon="3.69236">
        <ele>953</ele>
        <time>2016-05-16T10:25:03Z</time>
      </trkpt>
      <trkpt lat="44.29851" lon="3.69237">
        <ele>953</ele>
        <time>2016-05-16T10:25:13Z</time>
      </trkpt>
      <trkpt lat="44.29842" lon="3.69235">
        <ele>953</ele>
        <time>2016-05-16T10:25:23Z</time>
      </trkpt>
      <trkpt lat="44.29832" lon="3.69235">
        <ele>953</ele>
        <time>2016-05-16T10:25:32Z</time>
      </trkpt>
      <trkpt lat="44.29821" lon="3.69233">
        <ele>955</ele>
        <time>2016-05-16T10:25:43Z</time>
      </trkpt>
      <trkpt lat="44.29813" lon="3.69231">
        <ele>955</ele>
        <time>2016-05-16T10:25:53Z</time>
      </trkpt>
      <trkpt lat="44.29805" lon="3.69226">
        <ele>955</ele>
        <time>2016-05-16T10:26:03Z</time>
      </trkpt>
      <trkpt lat="44.29796" lon="3.69222">
        <ele>956</ele>
        <time>2016-05-16T10:26:12Z</time>
      </trkpt>
      <trkpt lat="44.29785" lon="3.6922">
        <ele>956</ele>
        <time>2016-05-16T10:26:22Z</time>
      </trkpt>
      <trkpt lat="44.29776" lon="3.69221">
        <ele>956</ele>
        <time>2016-05-16T10:26:31Z</time>
      </trkpt>
      <trkpt lat="44.29765" lon="3.69223">
        <ele>957</ele>
        <time>2016-05-16T10:26:41Z</time>
      </trkpt>
      <trkpt lat="44.29752" lon="3.69223">
        <ele>958</ele>
        <time>2016-05-16T10:26:50Z</time>
      </trkpt>
      <trkpt lat="44.29741" lon="3.6922">
        <ele>958</ele>
        <time>2016-05-16T10:27:00Z</time>
      </trkpt>
      <trkpt lat="44.29731" lon="3.6922">
        <ele>958</ele>
        <time>2016-05-16T10:27:09Z</time>
      </trkpt>
      <trkpt lat="44.29719" lon="3.69219">
        <ele>958</ele>
        <time>2016-05-16T10:27:18Z</time>
      </trkpt>
      <trkpt lat="44.29711" lon="3.69217">
        <ele>958</ele>
        <time>2016-05-16T10:27:27Z</time>
      </trkpt>
      <trkpt lat="44.29699" lon="3.69216">
        <ele>958</ele>
        <time>2016-05-16T10:27:37Z</time>
      </trkpt>
      <trkpt lat="44.29688" lon="3.69215">
        <ele>959</ele>
        <time>2016-05-16T10:27:47Z</time>
      </trkpt>
      <trkpt lat="44.29678" lon="3.69212">
        <ele>960</ele>
        <time>2016-05-16T10:27:57Z</time>
      </trkpt>
      <trkpt lat="44.29668" lon="3.69211">
        <ele>960</ele>
        <time>2016-05-16T10:28:07Z</time>
      </trkpt>
      <trkpt lat="44.29664" lon="3.6921">
        <ele>960</ele>
        <time>2016-05-16T10:28:18Z</time>
      </trkpt>
      <trkpt lat="44.29673" lon="3.69213">
        <ele>960</ele>
        <time>2016-05-16T10:28:28Z</time>
      </trkpt>
      <trkpt lat="44.29677" lon="3.69215">
        <ele>960</ele>
        <time>2016-05-16T10:29:00Z</time>
      </trkpt>
      <trkpt lat="44.29678" lon="3.69217">
        <ele>959</ele>
        <time>2016-05-16T10:29:16Z</time>
      </trkpt>
      <trkpt lat="44.29679" lon="3.69216">
        <ele>959</ele>
        <time>2016-05-16T10:29:25Z</time>
      </trkpt>
      <trkpt lat="44.2968" lon="3.69213">
        <ele>959</ele>
        <time>2016-05-16T10:29:39Z</time>
      </trkpt>
      <trkpt lat="44.29678" lon="3.69211">
        <ele>959</ele>
        <time>2016-05-16T10:29:53Z</time>
      </trkpt>
      <trkpt lat="44.2967" lon="3.69204">
        <ele>959</ele>
        <time>2016-05-16T10:30:03Z</time>
      </trkpt>
      <trkpt lat="44.2966" lon="3.69194">
        <ele>959</ele>
        <time>2016-05-16T10:30:13Z</time>
      </trkpt>
      <trkpt lat="44.29652" lon="3.69183">
        <ele>957</ele>
        <time>2016-05-16T10:30:22Z</time>
      </trkpt>
      <trkpt lat="44.29645" lon="3.69169">
        <ele>955</ele>
        <time>2016-05-16T10:30:33Z</time>
      </trkpt>
      <trkpt lat="44.2965" lon="3.69161">
        <ele>953</ele>
        <time>2016-05-16T10:30:43Z</time>
      </trkpt>
      <trkpt lat="44.29649" lon="3.69161">
        <ele>953</ele>
        <time>2016-05-16T10:30:57Z</time>
      </trkpt>
      <trkpt lat="44.29644" lon="3.69169">
        <ele>953</ele>
        <time>2016-05-16T10:31:07Z</time>
      </trkpt>
      <trkpt lat="44.29651" lon="3.69178">
        <ele>953</ele>
        <time>2016-05-16T10:31:17Z</time>
      </trkpt>
      <trkpt lat="44.29659" lon="3.69187">
        <ele>953</ele>
        <time>2016-05-16T10:31:27Z</time>
      </trkpt>
      <trkpt lat="44.29667" lon="3.69196">
        <ele>953</ele>
        <time>2016-05-16T10:31:37Z</time>
      </trkpt>
      <trkpt lat="44.29675" lon="3.69203">
        <ele>953</ele>
        <time>2016-05-16T10:31:47Z</time>
      </trkpt>
      <trkpt lat="44.29679" lon="3.69207">
        <ele>955</ele>
        <time>2016-05-16T10:31:57Z</time>
      </trkpt>
      <trkpt lat="44.29684" lon="3.69211">
        <ele>955</ele>
        <time>2016-05-16T10:32:11Z</time>
      </trkpt>
      <trkpt lat="44.29684" lon="3.69213">
        <ele>956</ele>
        <time>2016-05-16T10:33:20Z</time>
      </trkpt>
      <trkpt lat="44.29686" lon="3.69214">
        <ele>956</ele>
        <time>2016-05-16T10:33:32Z</time>
      </trkpt>
      <trkpt lat="44.29685" lon="3.69214">
        <ele>956</ele>
        <time>2016-05-16T10:34:25Z</time>
      </trkpt>
      <trkpt lat="44.29684" lon="3.69213">
        <ele>956</ele>
        <time>2016-05-16T10:34:41Z</time>
      </trkpt>
      <trkpt lat="44.29684" lon="3.69214">
        <ele>957</ele>
        <time>2016-05-16T10:35:10Z</time>
      </trkpt>
      <trkpt lat="44.29684" lon="3.69213">
        <ele>957</ele>
        <time>2016-05-16T10:36:49Z</time>
      </trkpt>
      <trkpt lat="44.29683" lon="3.69213">
        <ele>957</ele>
        <time>2016-05-16T10:37:09Z</time>
      </trkpt>
      <trkpt lat="44.29681" lon="3.69214">
        <ele>957</ele>
        <time>2016-05-16T10:37:47Z</time>
      </trkpt>
      <trkpt lat="44.29683" lon="3.69215">
        <ele>956</ele>
        <time>2016-05-16T10:38:00Z</time>
      </trkpt>
      <trkpt lat="44.29683" lon="3.69213">
        <ele>956</ele>
        <time>2016-05-16T10:38:16Z</time>
      </trkpt>
      <trkpt lat="44.29683" lon="3.69212">
        <ele>956</ele>
        <time>2016-05-16T10:38:58Z</time>
      </trkpt>
      <trkpt lat="44.29682" lon="3.69213">
        <ele>956</ele>
        <time>2016-05-16T10:39:27Z</time>
      </trkpt>
      <trkpt lat="44.29681" lon="3.69214">
        <ele>955</ele>
        <time>2016-05-16T10:40:59Z</time>
      </trkpt>
      <trkpt lat="44.29676" lon="3.69214">
        <ele>955</ele>
        <time>2016-05-16T10:41:09Z</time>
      </trkpt>
      <trkpt lat="44.29668" lon="3.69212">
        <ele>955</ele>
        <time>2016-05-16T10:41:20Z</time>
      </trkpt>
      <trkpt lat="44.29666" lon="3.69211">
        <ele>956</ele>
        <time>2016-05-16T10:41:37Z</time>
      </trkpt>
      <trkpt lat="44.29664" lon="3.6921">
        <ele>956</ele>
        <time>2016-05-16T10:42:08Z</time>
      </trkpt>
      <trkpt lat="44.29661" lon="3.69209">
        <ele>956</ele>
        <time>2016-05-16T10:43:02Z</time>
      </trkpt>
      <trkpt lat="44.29662" lon="3.69212">
        <ele>956</ele>
        <time>2016-05-16T10:43:19Z</time>
      </trkpt>
      <trkpt lat="44.29662" lon="3.69214">
        <ele>958</ele>
        <time>2016-05-16T10:43:29Z</time>
      </trkpt>
      <trkpt lat="44.29663" lon="3.69215">
        <ele>959</ele>
        <time>2016-05-16T10:43:52Z</time>
      </trkpt>
      <trkpt lat="44.29662" lon="3.69217">
        <ele>960</ele>
        <time>2016-05-16T10:44:25Z</time>
      </trkpt>
      <trkpt lat="44.29661" lon="3.69215">
        <ele>960</ele>
        <time>2016-05-16T10:44:34Z</time>
      </trkpt>
      <trkpt lat="44.29662" lon="3.69217">
        <ele>960</ele>
        <time>2016-05-16T10:44:48Z</time>
      </trkpt>
      <trkpt lat="44.29663" lon="3.69217">
        <ele>960</ele>
        <time>2016-05-16T10:45:12Z</time>
      </trkpt>
      <trkpt lat="44.29662" lon="3.69215">
        <ele>960</ele>
        <time>2016-05-16T10:45:31Z</time>
      </trkpt>
      <trkpt lat="44.29662" lon="3.69216">
        <ele>960</ele>
        <time>2016-05-16T10:45:53Z</time>
      </trkpt>
      <trkpt lat="44.29662" lon="3.69215">
        <ele>960</ele>
        <time>2016-05-16T10:46:10Z</time>
      </trkpt>
      <trkpt lat="44.29663" lon="3.69214">
        <ele>960</ele>
        <time>2016-05-16T10:46:20Z</time>
      </trkpt>
      <trkpt lat="44.29662" lon="3.69211">
        <ele>960</ele>
        <time>2016-05-16T10:46:38Z</time>
      </trkpt>
      <trkpt lat="44.29661" lon="3.69212">
        <ele>960</ele>
        <time>2016-05-16T10:46:49Z</time>
      </trkpt>
      <trkpt lat="44.29661" lon="3.69215">
        <ele>960</ele>
        <time>2016-05-16T10:47:00Z</time>
      </trkpt>
      <trkpt lat="44.29668" lon="3.69213">
        <ele>954</ele>
        <time>2016-05-16T10:47:09Z</time>
      </trkpt>
      <trkpt lat="44.29664" lon="3.69217">
        <ele>956</ele>
        <time>2016-05-16T10:47:18Z</time>
      </trkpt>
      <trkpt lat="44.29671" lon="3.69224">
        <ele>951</ele>
        <time>2016-05-16T10:47:29Z</time>
      </trkpt>
      <trkpt lat="44.29671" lon="3.69231">
        <ele>944</ele>
        <time>2016-05-16T10:47:38Z</time>
      </trkpt>
      <trkpt lat="44.29663" lon="3.69221">
        <ele>944</ele>
        <time>2016-05-16T10:47:47Z</time>
      </trkpt>
      <trkpt lat="44.29662" lon="3.69218">
        <ele>948</ele>
        <time>2016-05-16T10:48:00Z</time>
      </trkpt>
      <trkpt lat="44.29659" lon="3.69213">
        <ele>951</ele>
        <time>2016-05-16T10:48:09Z</time>
      </trkpt>
      <trkpt lat="44.2967" lon="3.69228">
        <ele>950</ele>
        <time>2016-05-16T10:48:18Z</time>
      </trkpt>
      <trkpt lat="44.29663" lon="3.69222">
        <ele>947</ele>
        <time>2016-05-16T10:48:27Z</time>
      </trkpt>
      <trkpt lat="44.2966" lon="3.69215">
        <ele>954</ele>
        <time>2016-05-16T10:48:40Z</time>
      </trkpt>
      <trkpt lat="44.29661" lon="3.69215">
        <ele>956</ele>
        <time>2016-05-16T10:48:51Z</time>
      </trkpt>
      <trkpt lat="44.29662" lon="3.69219">
        <ele>957</ele>
        <time>2016-05-16T10:49:01Z</time>
      </trkpt>
      <trkpt lat="44.29663" lon="3.69218">
        <ele>957</ele>
        <time>2016-05-16T10:49:10Z</time>
      </trkpt>
      <trkpt lat="44.29665" lon="3.6922">
        <ele>957</ele>
        <time>2016-05-16T10:49:19Z</time>
      </trkpt>
      <trkpt lat="44.29663" lon="3.69217">
        <ele>949</ele>
        <time>2016-05-16T10:49:34Z</time>
      </trkpt>
      <trkpt lat="44.29662" lon="3.69212">
        <ele>953</ele>
        <time>2016-05-16T10:49:43Z</time>
      </trkpt>
      <trkpt lat="44.29657" lon="3.69208">
        <ele>961</ele>
        <time>2016-05-16T10:49:52Z</time>
      </trkpt>
      <trkpt lat="44.2966" lon="3.69213">
        <ele>962</ele>
        <time>2016-05-16T10:50:05Z</time>
      </trkpt>
      <trkpt lat="44.29662" lon="3.69215">
        <ele>958</ele>
        <time>2016-05-16T10:50:56Z</time>
      </trkpt>
      <trkpt lat="44.29664" lon="3.69216">
        <ele>958</ele>
        <time>2016-05-16T10:51:30Z</time>
      </trkpt>
      <trkpt lat="44.29663" lon="3.69217">
        <ele>958</ele>
        <time>2016-05-16T10:52:29Z</time>
      </trkpt>
      <trkpt lat="44.29663" lon="3.69216">
        <ele>958</ele>
        <time>2016-05-16T10:52:40Z</time>
      </trkpt>
      <trkpt lat="44.29664" lon="3.69214">
        <ele>958</ele>
        <time>2016-05-16T10:53:17Z</time>
      </trkpt>
      <trkpt lat="44.29662" lon="3.69213">
        <ele>958</ele>
        <time>2016-05-16T10:54:34Z</time>
      </trkpt>
      <trkpt lat="44.29663" lon="3.69211">
        <ele>958</ele>
        <time>2016-05-16T10:54:54Z</time>
      </trkpt>
      <trkpt lat="44.29662" lon="3.6921">
        <ele>959</ele>
        <time>2016-05-16T10:55:07Z</time>
      </trkpt>
      <trkpt lat="44.29662" lon="3.69212">
        <ele>959</ele>
        <time>2016-05-16T10:55:22Z</time>
      </trkpt>
      <trkpt lat="44.29663" lon="3.69215">
        <ele>959</ele>
        <time>2016-05-16T10:56:34Z</time>
      </trkpt>
      <trkpt lat="44.29662" lon="3.69214">
        <ele>959</ele>
        <time>2016-05-16T10:58:14Z</time>
      </trkpt>
      <trkpt lat="44.29662" lon="3.69212">
        <ele>959</ele>
        <time>2016-05-16T10:58:54Z</time>
      </trkpt>
      <trkpt lat="44.29662" lon="3.6921">
        <ele>960</ele>
        <time>2016-05-16T10:59:08Z</time>
      </trkpt>
      <trkpt lat="44.29662" lon="3.69208">
        <ele>960</ele>
        <time>2016-05-16T10:59:55Z</time>
      </trkpt>
      <trkpt lat="44.29663" lon="3.69204">
        <ele>960</ele>
        <time>2016-05-16T11:00:12Z</time>
      </trkpt>
      <trkpt lat="44.29664" lon="3.69205">
        <ele>960</ele>
        <time>2016-05-16T11:00:33Z</time>
      </trkpt>
      <trkpt lat="44.29664" lon="3.69208">
        <ele>960</ele>
        <time>2016-05-16T11:01:45Z</time>
      </trkpt>
      <trkpt lat="44.29666" lon="3.69207">
        <ele>960</ele>
        <time>2016-05-16T11:02:00Z</time>
      </trkpt>
      <trkpt lat="44.29668" lon="3.69207">
        <ele>960</ele>
        <time>2016-05-16T11:02:11Z</time>
      </trkpt>
      <trkpt lat="44.29675" lon="3.69211">
        <ele>960</ele>
        <time>2016-05-16T11:02:21Z</time>
      </trkpt>
      <trkpt lat="44.29682" lon="3.69214">
        <ele>960</ele>
        <time>2016-05-16T11:02:32Z</time>
      </trkpt>
      <trkpt lat="44.29688" lon="3.69217">
        <ele>960</ele>
        <time>2016-05-16T11:02:41Z</time>
      </trkpt>
      <trkpt lat="44.29697" lon="3.69218">
        <ele>960</ele>
        <time>2016-05-16T11:02:51Z</time>
      </trkpt>
      <trkpt lat="44.29703" lon="3.69217">
        <ele>960</ele>
        <time>2016-05-16T11:03:00Z</time>
      </trkpt>
      <trkpt lat="44.2971" lon="3.69218">
        <ele>960</ele>
        <time>2016-05-16T11:03:09Z</time>
      </trkpt>
      <trkpt lat="44.29718" lon="3.6922">
        <ele>960</ele>
        <time>2016-05-16T11:03:19Z</time>
      </trkpt>
      <trkpt lat="44.29726" lon="3.69221">
        <ele>959</ele>
        <time>2016-05-16T11:03:28Z</time>
      </trkpt>
      <trkpt lat="44.29734" lon="3.69224">
        <ele>957</ele>
        <time>2016-05-16T11:03:37Z</time>
      </trkpt>
      <trkpt lat="44.29741" lon="3.69226">
        <ele>956</ele>
        <time>2016-05-16T11:03:47Z</time>
      </trkpt>
      <trkpt lat="44.29748" lon="3.69227">
        <ele>956</ele>
        <time>2016-05-16T11:03:57Z</time>
      </trkpt>
      <trkpt lat="44.29759" lon="3.69227">
        <ele>956</ele>
        <time>2016-05-16T11:04:07Z</time>
      </trkpt>
      <trkpt lat="44.29768" lon="3.69225">
        <ele>956</ele>
        <time>2016-05-16T11:04:16Z</time>
      </trkpt>
      <trkpt lat="44.29777" lon="3.69222">
        <ele>956</ele>
        <time>2016-05-16T11:04:25Z</time>
      </trkpt>
      <trkpt lat="44.29787" lon="3.69222">
        <ele>954</ele>
        <time>2016-05-16T11:04:35Z</time>
      </trkpt>
      <trkpt lat="44.29796" lon="3.69224">
        <ele>954</ele>
        <time>2016-05-16T11:04:46Z</time>
      </trkpt>
      <trkpt lat="44.29805" lon="3.69227">
        <ele>954</ele>
        <time>2016-05-16T11:04:56Z</time>
      </trkpt>
      <trkpt lat="44.29814" lon="3.69229">
        <ele>954</ele>
        <time>2016-05-16T11:05:06Z</time>
      </trkpt>
      <trkpt lat="44.29825" lon="3.69233">
        <ele>954</ele>
        <time>2016-05-16T11:05:16Z</time>
      </trkpt>
      <trkpt lat="44.29834" lon="3.69235">
        <ele>954</ele>
        <time>2016-05-16T11:05:25Z</time>
      </trkpt>
      <trkpt lat="44.29842" lon="3.69235">
        <ele>954</ele>
        <time>2016-05-16T11:05:34Z</time>
      </trkpt>
      <trkpt lat="44.29852" lon="3.69234">
        <ele>954</ele>
        <time>2016-05-16T11:05:43Z</time>
      </trkpt>
      <trkpt lat="44.29861" lon="3.69236">
        <ele>954</ele>
        <time>2016-05-16T11:05:52Z</time>
      </trkpt>
      <trkpt lat="44.29871" lon="3.6924">
        <ele>952</ele>
        <time>2016-05-16T11:06:01Z</time>
      </trkpt>
      <trkpt lat="44.2988" lon="3.69243">
        <ele>952</ele>
        <time>2016-05-16T11:06:11Z</time>
      </trkpt>
      <trkpt lat="44.29891" lon="3.69251">
        <ele>951</ele>
        <time>2016-05-16T11:06:21Z</time>
      </trkpt>
      <trkpt lat="44.29898" lon="3.69255">
        <ele>951</ele>
        <time>2016-05-16T11:06:30Z</time>
      </trkpt>
      <trkpt lat="44.29908" lon="3.69259">
        <ele>951</ele>
        <time>2016-05-16T11:06:39Z</time>
      </trkpt>
      <trkpt lat="44.29918" lon="3.69263">
        <ele>951</ele>
        <time>2016-05-16T11:06:49Z</time>
      </trkpt>
      <trkpt lat="44.29928" lon="3.69272">
        <ele>951</ele>
        <time>2016-05-16T11:06:59Z</time>
      </trkpt>
      <trkpt lat="44.29939" lon="3.6928">
        <ele>948</ele>
        <time>2016-05-16T11:07:08Z</time>
      </trkpt>
      <trkpt lat="44.29947" lon="3.69285">
        <ele>947</ele>
        <time>2016-05-16T11:07:17Z</time>
      </trkpt>
      <trkpt lat="44.29954" lon="3.69289">
        <ele>947</ele>
        <time>2016-05-16T11:07:27Z</time>
      </trkpt>
      <trkpt lat="44.29961" lon="3.69298">
        <ele>946</ele>
        <time>2016-05-16T11:07:36Z</time>
      </trkpt>
      <trkpt lat="44.29968" lon="3.69308">
        <ele>945</ele>
        <time>2016-05-16T11:07:45Z</time>
      </trkpt>
      <trkpt lat="44.29974" lon="3.69318">
        <ele>945</ele>
        <time>2016-05-16T11:07:54Z</time>
      </trkpt>
      <trkpt lat="44.29983" lon="3.69327">
        <ele>945</ele>
        <time>2016-05-16T11:08:03Z</time>
      </trkpt>
      <trkpt lat="44.29993" lon="3.6933">
        <ele>945</ele>
        <time>2016-05-16T11:08:12Z</time>
      </trkpt>
      <trkpt lat="44.30004" lon="3.6933">
        <ele>945</ele>
        <time>2016-05-16T11:08:22Z</time>
      </trkpt>
      <trkpt lat="44.30011" lon="3.69327">
        <ele>947</ele>
        <time>2016-05-16T11:08:32Z</time>
      </trkpt>
      <trkpt lat="44.30021" lon="3.69324">
        <ele>948</ele>
        <time>2016-05-16T11:08:41Z</time>
      </trkpt>
      <trkpt lat="44.30024" lon="3.6932">
        <ele>944</ele>
        <time>2016-05-16T11:08:52Z</time>
      </trkpt>
      <trkpt lat="44.30017" lon="3.69309">
        <ele>940</ele>
        <time>2016-05-16T11:09:01Z</time>
      </trkpt>
      <trkpt lat="44.30014" lon="3.69307">
        <ele>938</ele>
        <time>2016-05-16T11:09:10Z</time>
      </trkpt>
      <trkpt lat="44.30008" lon="3.69298">
        <ele>938</ele>
        <time>2016-05-16T11:09:19Z</time>
      </trkpt>
      <trkpt lat="44.29997" lon="3.69292">
        <ele>941</ele>
        <time>2016-05-16T11:09:28Z</time>
      </trkpt>
      <trkpt lat="44.29996" lon="3.69304">
        <ele>938</ele>
        <time>2016-05-16T11:09:38Z</time>
      </trkpt>
      <trkpt lat="44.29988" lon="3.69305">
        <ele>929</ele>
        <time>2016-05-16T11:09:48Z</time>
      </trkpt>
      <trkpt lat="44.29989" lon="3.69299">
        <ele>923</ele>
        <time>2016-05-16T11:09:57Z</time>
      </trkpt>
      <trkpt lat="44.29988" lon="3.69285">
        <ele>921</ele>
        <time>2016-05-16T11:10:06Z</time>
      </trkpt>
      <trkpt lat="44.29983" lon="3.6927">
        <ele>931</ele>
        <time>2016-05-16T11:10:16Z</time>
      </trkpt>
      <trkpt lat="44.29982" lon="3.69256">
        <ele>939</ele>
        <time>2016-05-16T11:10:25Z</time>
      </trkpt>
      <trkpt lat="44.29976" lon="3.69248">
        <ele>939</ele>
        <time>2016-05-16T11:10:34Z</time>
      </trkpt>
      <trkpt lat="44.29975" lon="3.6924">
        <ele>937</ele>
        <time>2016-05-16T11:10:44Z</time>
      </trkpt>
      <trkpt lat="44.29971" lon="3.69228">
        <ele>934</ele>
        <time>2016-05-16T11:10:53Z</time>
      </trkpt>
      <trkpt lat="44.29973" lon="3.69224">
        <ele>933</ele>
        <time>2016-05-16T11:11:02Z</time>
      </trkpt>
      <trkpt lat="44.29963" lon="3.6921">
        <ele>929</ele>
        <time>2016-05-16T11:11:11Z</time>
      </trkpt>
      <trkpt lat="44.29959" lon="3.692">
        <ele>929</ele>
        <time>2016-05-16T11:11:20Z</time>
      </trkpt>
      <trkpt lat="44.29955" lon="3.69193">
        <ele>925</ele>
        <time>2016-05-16T11:11:29Z</time>
      </trkpt>
      <trkpt lat="44.29951" lon="3.69186">
        <ele>923</ele>
        <time>2016-05-16T11:11:39Z</time>
      </trkpt>
      <trkpt lat="44.29949" lon="3.69177">
        <ele>923</ele>
        <time>2016-05-16T11:11:49Z</time>
      </trkpt>
      <trkpt lat="44.29952" lon="3.69179">
        <ele>917</ele>
        <time>2016-05-16T11:12:01Z</time>
      </trkpt>
      <trkpt lat="44.29945" lon="3.69174">
        <ele>912</ele>
        <time>2016-05-16T11:12:11Z</time>
      </trkpt>
      <trkpt lat="44.29936" lon="3.69168">
        <ele>909</ele>
        <time>2016-05-16T11:12:20Z</time>
      </trkpt>
      <trkpt lat="44.29931" lon="3.69163">
        <ele>909</ele>
        <time>2016-05-16T11:12:29Z</time>
      </trkpt>
      <trkpt lat="44.2993" lon="3.69159">
        <ele>909</ele>
        <time>2016-05-16T11:12:38Z</time>
      </trkpt>
      <trkpt lat="44.29927" lon="3.6915">
        <ele>909</ele>
        <time>2016-05-16T11:12:49Z</time>
      </trkpt>
      <trkpt lat="44.29928" lon="3.69135">
        <ele>913</ele>
        <time>2016-05-16T11:12:58Z</time>
      </trkpt>
      <trkpt lat="44.29927" lon="3.69133">
        <ele>925</ele>
        <time>2016-05-16T11:13:10Z</time>
      </trkpt>
      <trkpt lat="44.29924" lon="3.69122">
        <ele>934</ele>
        <time>2016-05-16T11:13:19Z</time>
      </trkpt>
      <trkpt lat="44.29915" lon="3.69114">
        <ele>941</ele>
        <time>2016-05-16T11:13:32Z</time>
      </trkpt>
      <trkpt lat="44.29908" lon="3.6912">
        <ele>937</ele>
        <time>2016-05-16T11:13:43Z</time>
      </trkpt>
      <trkpt lat="44.29907" lon="3.69127">
        <ele>929</ele>
        <time>2016-05-16T11:13:53Z</time>
      </trkpt>
      <trkpt lat="44.29907" lon="3.69123">
        <ele>929</ele>
        <time>2016-05-16T11:14:02Z</time>
      </trkpt>
      <trkpt lat="44.2991" lon="3.69121">
        <ele>927</ele>
        <time>2016-05-16T11:14:12Z</time>
      </trkpt>
      <trkpt lat="44.29911" lon="3.69121">
        <ele>926</ele>
        <time>2016-05-16T11:14:25Z</time>
      </trkpt>
      <trkpt lat="44.29913" lon="3.69124">
        <ele>924</ele>
        <time>2016-05-16T11:14:34Z</time>
      </trkpt>
      <trkpt lat="44.29917" lon="3.69138">
        <ele>911</ele>
        <time>2016-05-16T11:14:44Z</time>
      </trkpt>
      <trkpt lat="44.29917" lon="3.6914">
        <ele>903</ele>
        <time>2016-05-16T11:14:53Z</time>
      </trkpt>
      <trkpt lat="44.29915" lon="3.69131">
        <ele>903</ele>
        <time>2016-05-16T11:15:03Z</time>
      </trkpt>
      <trkpt lat="44.29911" lon="3.69122">
        <ele>895</ele>
        <time>2016-05-16T11:15:14Z</time>
      </trkpt>
      <trkpt lat="44.29904" lon="3.69107">
        <ele>894</ele>
        <time>2016-05-16T11:15:23Z</time>
      </trkpt>
      <trkpt lat="44.29899" lon="3.691">
        <ele>894</ele>
        <time>2016-05-16T11:15:32Z</time>
      </trkpt>
      <trkpt lat="44.29891" lon="3.69096">
        <ele>893</ele>
        <time>2016-05-16T11:15:42Z</time>
      </trkpt>
      <trkpt lat="44.29888" lon="3.69094">
        <ele>886</ele>
        <time>2016-05-16T11:15:52Z</time>
      </trkpt>
      <trkpt lat="44.29878" lon="3.6909">
        <ele>886</ele>
        <time>2016-05-16T11:16:01Z</time>
      </trkpt>
      <trkpt lat="44.2987" lon="3.69082">
        <ele>882</ele>
        <time>2016-05-16T11:16:11Z</time>
      </trkpt>
      <trkpt lat="44.29866" lon="3.69066">
        <ele>883</ele>
        <time>2016-05-16T11:16:20Z</time>
      </trkpt>
      <trkpt lat="44.29859" lon="3.69051">
        <ele>883</ele>
        <time>2016-05-16T11:16:30Z</time>
      </trkpt>
      <trkpt lat="44.29854" lon="3.69043">
        <ele>878</ele>
        <time>2016-05-16T11:16:40Z</time>
      </trkpt>
      <trkpt lat="44.29841" lon="3.69032">
        <ele>878</ele>
        <time>2016-05-16T11:16:49Z</time>
      </trkpt>
      <trkpt lat="44.29838" lon="3.69026">
        <ele>879</ele>
        <time>2016-05-16T11:16:59Z</time>
      </trkpt>
      <trkpt lat="44.29827" lon="3.6902">
        <ele>873</ele>
        <time>2016-05-16T11:17:09Z</time>
      </trkpt>
      <trkpt lat="44.29822" lon="3.69012">
        <ele>869</ele>
        <time>2016-05-16T11:17:22Z</time>
      </trkpt>
      <trkpt lat="44.29811" lon="3.69">
        <ele>877</ele>
        <time>2016-05-16T11:17:31Z</time>
      </trkpt>
      <trkpt lat="44.29802" lon="3.68988">
        <ele>882</ele>
        <time>2016-05-16T11:17:40Z</time>
      </trkpt>
      <trkpt lat="44.29795" lon="3.68979">
        <ele>884</ele>
        <time>2016-05-16T11:17:50Z</time>
      </trkpt>
      <trkpt lat="44.29789" lon="3.68969">
        <ele>883</ele>
        <time>2016-05-16T11:17:59Z</time>
      </trkpt>
      <trkpt lat="44.29781" lon="3.68961">
        <ele>883</ele>
        <time>2016-05-16T11:18:08Z</time>
      </trkpt>
      <trkpt lat="44.29771" lon="3.68954">
        <ele>883</ele>
        <time>2016-05-16T11:18:17Z</time>
      </trkpt>
      <trkpt lat="44.29757" lon="3.68944">
        <ele>883</ele>
        <time>2016-05-16T11:18:26Z</time>
      </trkpt>
      <trkpt lat="44.29747" lon="3.68942">
        <ele>874</ele>
        <time>2016-05-16T11:18:37Z</time>
      </trkpt>
      <trkpt lat="44.2974" lon="3.68941">
        <ele>862</ele>
        <time>2016-05-16T11:18:49Z</time>
      </trkpt>
      <trkpt lat="44.29729" lon="3.68929">
        <ele>863</ele>
        <time>2016-05-16T11:18:58Z</time>
      </trkpt>
      <trkpt lat="44.29721" lon="3.68913">
        <ele>868</ele>
        <time>2016-05-16T11:19:09Z</time>
      </trkpt>
      <trkpt lat="44.29714" lon="3.689">
        <ele>870</ele>
        <time>2016-05-16T11:19:18Z</time>
      </trkpt>
      <trkpt lat="44.29707" lon="3.68894">
        <ele>873</ele>
        <time>2016-05-16T11:19:27Z</time>
      </trkpt>
      <trkpt lat="44.29699" lon="3.68883">
        <ele>874</ele>
        <time>2016-05-16T11:19:36Z</time>
      </trkpt>
      <trkpt lat="44.29693" lon="3.68876">
        <ele>874</ele>
        <time>2016-05-16T11:19:46Z</time>
      </trkpt>
      <trkpt lat="44.29684" lon="3.68873">
        <ele>874</ele>
        <time>2016-05-16T11:19:55Z</time>
      </trkpt>
      <trkpt lat="44.29676" lon="3.68872">
        <ele>873</ele>
        <time>2016-05-16T11:20:06Z</time>
      </trkpt>
      <trkpt lat="44.29664" lon="3.68871">
        <ele>871</ele>
        <time>2016-05-16T11:20:15Z</time>
      </trkpt>
      <trkpt lat="44.29652" lon="3.6887">
        <ele>871</ele>
        <time>2016-05-16T11:20:24Z</time>
      </trkpt>
      <trkpt lat="44.29645" lon="3.68876">
        <ele>870</ele>
        <time>2016-05-16T11:20:33Z</time>
      </trkpt>
      <trkpt lat="44.29633" lon="3.68874">
        <ele>867</ele>
        <time>2016-05-16T11:20:43Z</time>
      </trkpt>
      <trkpt lat="44.29622" lon="3.68873">
        <ele>867</ele>
        <time>2016-05-16T11:20:52Z</time>
      </trkpt>
      <trkpt lat="44.29608" lon="3.68868">
        <ele>867</ele>
        <time>2016-05-16T11:21:02Z</time>
      </trkpt>
      <trkpt lat="44.29595" lon="3.68864">
        <ele>867</ele>
        <time>2016-05-16T11:21:11Z</time>
      </trkpt>
      <trkpt lat="44.29583" lon="3.68857">
        <ele>867</ele>
        <time>2016-05-16T11:21:20Z</time>
      </trkpt>
      <trkpt lat="44.29572" lon="3.68855">
        <ele>867</ele>
        <time>2016-05-16T11:21:30Z</time>
      </trkpt>
      <trkpt lat="44.29554" lon="3.68851">
        <ele>867</ele>
        <time>2016-05-16T11:21:39Z</time>
      </trkpt>
      <trkpt lat="44.29539" lon="3.68839">
        <ele>867</ele>
        <time>2016-05-16T11:21:50Z</time>
      </trkpt>
      <trkpt lat="44.2953" lon="3.68837">
        <ele>867</ele>
        <time>2016-05-16T11:21:59Z</time>
      </trkpt>
      <trkpt lat="44.29523" lon="3.68833">
        <ele>865</ele>
        <time>2016-05-16T11:22:08Z</time>
      </trkpt>
      <trkpt lat="44.29513" lon="3.68835">
        <ele>863</ele>
        <time>2016-05-16T11:22:17Z</time>
      </trkpt>
      <trkpt lat="44.29503" lon="3.68839">
        <ele>863</ele>
        <time>2016-05-16T11:22:26Z</time>
      </trkpt>
      <trkpt lat="44.29498" lon="3.68846">
        <ele>861</ele>
        <time>2016-05-16T11:22:36Z</time>
      </trkpt>
      <trkpt lat="44.29497" lon="3.68858">
        <ele>857</ele>
        <time>2016-05-16T11:22:46Z</time>
      </trkpt>
      <trkpt lat="44.29493" lon="3.68868">
        <ele>854</ele>
        <time>2016-05-16T11:22:55Z</time>
      </trkpt>
      <trkpt lat="44.29489" lon="3.68882">
        <ele>849</ele>
        <time>2016-05-16T11:23:04Z</time>
      </trkpt>
      <trkpt lat="44.29484" lon="3.6889">
        <ele>845</ele>
        <time>2016-05-16T11:23:13Z</time>
      </trkpt>
      <trkpt lat="44.2948" lon="3.68899">
        <ele>839</ele>
        <time>2016-05-16T11:23:22Z</time>
      </trkpt>
      <trkpt lat="44.29473" lon="3.68911">
        <ele>835</ele>
        <time>2016-05-16T11:23:32Z</time>
      </trkpt>
      <trkpt lat="44.29462" lon="3.6892">
        <ele>826</ele>
        <time>2016-05-16T11:23:42Z</time>
      </trkpt>
      <trkpt lat="44.2945" lon="3.68916">
        <ele>826</ele>
        <time>2016-05-16T11:23:51Z</time>
      </trkpt>
      <trkpt lat="44.2944" lon="3.68919">
        <ele>831</ele>
        <time>2016-05-16T11:24:00Z</time>
      </trkpt>
      <trkpt lat="44.29433" lon="3.68918">
        <ele>831</ele>
        <time>2016-05-16T11:24:09Z</time>
      </trkpt>
      <trkpt lat="44.29422" lon="3.6891">
        <ele>836</ele>
        <time>2016-05-16T11:24:18Z</time>
      </trkpt>
      <trkpt lat="44.29408" lon="3.68898">
        <ele>839</ele>
        <time>2016-05-16T11:24:27Z</time>
      </trkpt>
      <trkpt lat="44.294" lon="3.68892">
        <ele>840</ele>
        <time>2016-05-16T11:24:38Z</time>
      </trkpt>
      <trkpt lat="44.29402" lon="3.68894">
        <ele>840</ele>
        <time>2016-05-16T11:24:53Z</time>
      </trkpt>
      <trkpt lat="44.29401" lon="3.68895">
        <ele>840</ele>
        <time>2016-05-16T11:25:02Z</time>
      </trkpt>
      <trkpt lat="44.29395" lon="3.68893">
        <ele>840</ele>
        <time>2016-05-16T11:25:12Z</time>
      </trkpt>
      <trkpt lat="44.29393" lon="3.6889">
        <ele>842</ele>
        <time>2016-05-16T11:25:23Z</time>
      </trkpt>
      <trkpt lat="44.29393" lon="3.68888">
        <ele>847</ele>
        <time>2016-05-16T11:25:40Z</time>
      </trkpt>
      <trkpt lat="44.29392" lon="3.68888">
        <ele>847</ele>
        <time>2016-05-16T11:25:52Z</time>
      </trkpt>
      <trkpt lat="44.2939" lon="3.68888">
        <ele>847</ele>
        <time>2016-05-16T11:26:04Z</time>
      </trkpt>
      <trkpt lat="44.29383" lon="3.68893">
        <ele>847</ele>
        <time>2016-05-16T11:26:14Z</time>
      </trkpt>
      <trkpt lat="44.29379" lon="3.68895">
        <ele>845</ele>
        <time>2016-05-16T11:26:23Z</time>
      </trkpt>
      <trkpt lat="44.29371" lon="3.68893">
        <ele>845</ele>
        <time>2016-05-16T11:26:33Z</time>
      </trkpt>
      <trkpt lat="44.29362" lon="3.68901">
        <ele>843</ele>
        <time>2016-05-16T11:26:42Z</time>
      </trkpt>
      <trkpt lat="44.29351" lon="3.68905">
        <ele>840</ele>
        <time>2016-05-16T11:26:51Z</time>
      </trkpt>
      <trkpt lat="44.29348" lon="3.68916">
        <ele>837</ele>
        <time>2016-05-16T11:27:00Z</time>
      </trkpt>
      <trkpt lat="44.29344" lon="3.68927">
        <ele>829</ele>
        <time>2016-05-16T11:27:10Z</time>
      </trkpt>
      <trkpt lat="44.29341" lon="3.68935">
        <ele>827</ele>
        <time>2016-05-16T11:27:19Z</time>
      </trkpt>
      <trkpt lat="44.29339" lon="3.68942">
        <ele>827</ele>
        <time>2016-05-16T11:27:28Z</time>
      </trkpt>
      <trkpt lat="44.29338" lon="3.68955">
        <ele>829</ele>
        <time>2016-05-16T11:27:37Z</time>
      </trkpt>
      <trkpt lat="44.29336" lon="3.68968">
        <ele>829</ele>
        <time>2016-05-16T11:27:46Z</time>
      </trkpt>
      <trkpt lat="44.29334" lon="3.6898">
        <ele>826</ele>
        <time>2016-05-16T11:27:55Z</time>
      </trkpt>
      <trkpt lat="44.2933" lon="3.68994">
        <ele>826</ele>
        <time>2016-05-16T11:28:04Z</time>
      </trkpt>
      <trkpt lat="44.29325" lon="3.69005">
        <ele>827</ele>
        <time>2016-05-16T11:28:13Z</time>
      </trkpt>
      <trkpt lat="44.29318" lon="3.69017">
        <ele>833</ele>
        <time>2016-05-16T11:28:22Z</time>
      </trkpt>
      <trkpt lat="44.29318" lon="3.6903">
        <ele>831</ele>
        <time>2016-05-16T11:28:32Z</time>
      </trkpt>
      <trkpt lat="44.29311" lon="3.6904">
        <ele>822</ele>
        <time>2016-05-16T11:28:42Z</time>
      </trkpt>
      <trkpt lat="44.29303" lon="3.69054">
        <ele>816</ele>
        <time>2016-05-16T11:28:52Z</time>
      </trkpt>
      <trkpt lat="44.29298" lon="3.69067">
        <ele>813</ele>
        <time>2016-05-16T11:29:01Z</time>
      </trkpt>
      <trkpt lat="44.29292" lon="3.69074">
        <ele>811</ele>
        <time>2016-05-16T11:29:11Z</time>
      </trkpt>
      <trkpt lat="44.29287" lon="3.69082">
        <ele>814</ele>
        <time>2016-05-16T11:29:20Z</time>
      </trkpt>
      <trkpt lat="44.29279" lon="3.6909">
        <ele>822</ele>
        <time>2016-05-16T11:29:30Z</time>
      </trkpt>
      <trkpt lat="44.29271" lon="3.69101">
        <ele>822</ele>
        <time>2016-05-16T11:29:39Z</time>
      </trkpt>
      <trkpt lat="44.29262" lon="3.69108">
        <ele>816</ele>
        <time>2016-05-16T11:29:48Z</time>
      </trkpt>
      <trkpt lat="44.29259" lon="3.69117">
        <ele>814</ele>
        <time>2016-05-16T11:29:58Z</time>
      </trkpt>
      <trkpt lat="44.29253" lon="3.6912">
        <ele>813</ele>
        <time>2016-05-16T11:30:07Z</time>
      </trkpt>
      <trkpt lat="44.29242" lon="3.69129">
        <ele>813</ele>
        <time>2016-05-16T11:30:17Z</time>
      </trkpt>
      <trkpt lat="44.29234" lon="3.69134">
        <ele>813</ele>
        <time>2016-05-16T11:30:27Z</time>
      </trkpt>
      <trkpt lat="44.29225" lon="3.69142">
        <ele>808</ele>
        <time>2016-05-16T11:30:37Z</time>
      </trkpt>
      <trkpt lat="44.29221" lon="3.69145">
        <ele>807</ele>
        <time>2016-05-16T11:30:46Z</time>
      </trkpt>
      <trkpt lat="44.2921" lon="3.69142">
        <ele>805</ele>
        <time>2016-05-16T11:30:55Z</time>
      </trkpt>
      <trkpt lat="44.29203" lon="3.69144">
        <ele>805</ele>
        <time>2016-05-16T11:31:05Z</time>
      </trkpt>
      <trkpt lat="44.29198" lon="3.69144">
        <ele>804</ele>
        <time>2016-05-16T11:31:14Z</time>
      </trkpt>
      <trkpt lat="44.29194" lon="3.69134">
        <ele>804</ele>
        <time>2016-05-16T11:31:23Z</time>
      </trkpt>
      <trkpt lat="44.29196" lon="3.69126">
        <ele>803</ele>
        <time>2016-05-16T11:31:36Z</time>
      </trkpt>
      <trkpt lat="44.29201" lon="3.69119">
        <ele>803</ele>
        <time>2016-05-16T11:31:45Z</time>
      </trkpt>
      <trkpt lat="44.29198" lon="3.69114">
        <ele>809</ele>
        <time>2016-05-16T11:31:54Z</time>
      </trkpt>
      <trkpt lat="44.29194" lon="3.6911">
        <ele>810</ele>
        <time>2016-05-16T11:32:03Z</time>
      </trkpt>
      <trkpt lat="44.2919" lon="3.691">
        <ele>807</ele>
        <time>2016-05-16T11:32:13Z</time>
      </trkpt>
      <trkpt lat="44.29196" lon="3.69095">
        <ele>803</ele>
        <time>2016-05-16T11:32:22Z</time>
      </trkpt>
      <trkpt lat="44.29201" lon="3.69091">
        <ele>795</ele>
        <time>2016-05-16T11:32:35Z</time>
      </trkpt>
      <trkpt lat="44.29204" lon="3.69079">
        <ele>793</ele>
        <time>2016-05-16T11:32:45Z</time>
      </trkpt>
      <trkpt lat="44.29203" lon="3.69079">
        <ele>792</ele>
        <time>2016-05-16T11:32:54Z</time>
      </trkpt>
      <trkpt lat="44.29195" lon="3.69073">
        <ele>785</ele>
        <time>2016-05-16T11:33:04Z</time>
      </trkpt>
      <trkpt lat="44.29197" lon="3.69066">
        <ele>786</ele>
        <time>2016-05-16T11:33:13Z</time>
      </trkpt>
      <trkpt lat="44.29195" lon="3.6906">
        <ele>790</ele>
        <time>2016-05-16T11:33:22Z</time>
      </trkpt>
      <trkpt lat="44.29192" lon="3.69061">
        <ele>785</ele>
        <time>2016-05-16T11:33:32Z</time>
      </trkpt>
      <trkpt lat="44.29188" lon="3.69068">
        <ele>776</ele>
        <time>2016-05-16T11:33:44Z</time>
      </trkpt>
      <trkpt lat="44.29182" lon="3.69071">
        <ele>775</ele>
        <time>2016-05-16T11:33:53Z</time>
      </trkpt>
      <trkpt lat="44.29166" lon="3.69064">
        <ele>774</ele>
        <time>2016-05-16T11:34:07Z</time>
      </trkpt>
      <trkpt lat="44.29157" lon="3.69059">
        <ele>774</ele>
        <time>2016-05-16T11:34:17Z</time>
      </trkpt>
      <trkpt lat="44.29146" lon="3.69061">
        <ele>766</ele>
        <time>2016-05-16T11:34:29Z</time>
      </trkpt>
      <trkpt lat="44.29145" lon="3.69057">
        <ele>760</ele>
        <time>2016-05-16T11:34:38Z</time>
      </trkpt>
      <trkpt lat="44.2915" lon="3.69051">
        <ele>756</ele>
        <time>2016-05-16T11:34:47Z</time>
      </trkpt>
      <trkpt lat="44.29155" lon="3.69053">
        <ele>756</ele>
        <time>2016-05-16T11:34:57Z</time>
      </trkpt>
      <trkpt lat="44.29143" lon="3.69045">
        <ele>756</ele>
        <time>2016-05-16T11:35:07Z</time>
      </trkpt>
      <trkpt lat="44.29146" lon="3.69042">
        <ele>756</ele>
        <time>2016-05-16T11:35:18Z</time>
      </trkpt>
      <trkpt lat="44.29139" lon="3.69042">
        <ele>757</ele>
        <time>2016-05-16T11:35:29Z</time>
      </trkpt>
      <trkpt lat="44.29134" lon="3.69042">
        <ele>757</ele>
        <time>2016-05-16T11:35:38Z</time>
      </trkpt>
      <trkpt lat="44.29124" lon="3.69044">
        <ele>757</ele>
        <time>2016-05-16T11:35:47Z</time>
      </trkpt>
      <trkpt lat="44.29113" lon="3.69052">
        <ele>758</ele>
        <time>2016-05-16T11:35:56Z</time>
      </trkpt>
      <trkpt lat="44.29106" lon="3.69046">
        <ele>758</ele>
        <time>2016-05-16T11:36:06Z</time>
      </trkpt>
      <trkpt lat="44.2911" lon="3.69037">
        <ele>757</ele>
        <time>2016-05-16T11:36:15Z</time>
      </trkpt>
      <trkpt lat="44.29114" lon="3.69024">
        <ele>757</ele>
        <time>2016-05-16T11:36:24Z</time>
      </trkpt>
      <trkpt lat="44.2911" lon="3.69022">
        <ele>757</ele>
        <time>2016-05-16T11:36:37Z</time>
      </trkpt>
      <trkpt lat="44.29109" lon="3.69024">
        <ele>754</ele>
        <time>2016-05-16T11:36:46Z</time>
      </trkpt>
      <trkpt lat="44.29107" lon="3.6902">
        <ele>748</ele>
        <time>2016-05-16T11:36:55Z</time>
      </trkpt>
      <trkpt lat="44.29104" lon="3.69023">
        <ele>743</ele>
        <time>2016-05-16T11:37:04Z</time>
      </trkpt>
      <trkpt lat="44.29099" lon="3.69016">
        <ele>734</ele>
        <time>2016-05-16T11:37:15Z</time>
      </trkpt>
      <trkpt lat="44.29094" lon="3.69011">
        <ele>734</ele>
        <time>2016-05-16T11:37:27Z</time>
      </trkpt>
      <trkpt lat="44.29086" lon="3.69017">
        <ele>738</ele>
        <time>2016-05-16T11:37:37Z</time>
      </trkpt>
      <trkpt lat="44.29086" lon="3.69007">
        <ele>732</ele>
        <time>2016-05-16T11:37:47Z</time>
      </trkpt>
      <trkpt lat="44.29087" lon="3.68993">
        <ele>730</ele>
        <time>2016-05-16T11:37:56Z</time>
      </trkpt>
      <trkpt lat="44.29092" lon="3.68981">
        <ele>730</ele>
        <time>2016-05-16T11:38:06Z</time>
      </trkpt>
      <trkpt lat="44.29098" lon="3.68977">
        <ele>730</ele>
        <time>2016-05-16T11:38:17Z</time>
      </trkpt>
      <trkpt lat="44.29095" lon="3.68972">
        <ele>730</ele>
        <time>2016-05-16T11:38:27Z</time>
      </trkpt>
      <trkpt lat="44.29086" lon="3.68974">
        <ele>726</ele>
        <time>2016-05-16T11:38:37Z</time>
      </trkpt>
      <trkpt lat="44.29084" lon="3.68972">
        <ele>717</ele>
        <time>2016-05-16T11:38:46Z</time>
      </trkpt>
      <trkpt lat="44.29084" lon="3.68962">
        <ele>715</ele>
        <time>2016-05-16T11:38:56Z</time>
      </trkpt>
      <trkpt lat="44.29086" lon="3.68951">
        <ele>712</ele>
        <time>2016-05-16T11:39:05Z</time>
      </trkpt>
      <trkpt lat="44.29088" lon="3.68939">
        <ele>710</ele>
        <time>2016-05-16T11:39:14Z</time>
      </trkpt>
      <trkpt lat="44.29092" lon="3.68925">
        <ele>712</ele>
        <time>2016-05-16T11:39:25Z</time>
      </trkpt>
      <trkpt lat="44.29092" lon="3.68922">
        <ele>716</ele>
        <time>2016-05-16T11:39:34Z</time>
      </trkpt>
      <trkpt lat="44.29082" lon="3.68925">
        <ele>716</ele>
        <time>2016-05-16T11:39:44Z</time>
      </trkpt>
      <trkpt lat="44.29074" lon="3.68918">
        <ele>707</ele>
        <time>2016-05-16T11:39:54Z</time>
      </trkpt>
      <trkpt lat="44.29078" lon="3.6891">
        <ele>704</ele>
        <time>2016-05-16T11:40:03Z</time>
      </trkpt>
      <trkpt lat="44.29074" lon="3.689">
        <ele>698</ele>
        <time>2016-05-16T11:40:13Z</time>
      </trkpt>
      <trkpt lat="44.29069" lon="3.68897">
        <ele>695</ele>
        <time>2016-05-16T11:40:24Z</time>
      </trkpt>
      <trkpt lat="44.29064" lon="3.68896">
        <ele>695</ele>
        <time>2016-05-16T11:40:34Z</time>
      </trkpt>
      <trkpt lat="44.29056" lon="3.68896">
        <ele>690</ele>
        <time>2016-05-16T11:40:43Z</time>
      </trkpt>
      <trkpt lat="44.29051" lon="3.68885">
        <ele>687</ele>
        <time>2016-05-16T11:40:53Z</time>
      </trkpt>
      <trkpt lat="44.29044" lon="3.68878">
        <ele>687</ele>
        <time>2016-05-16T11:41:02Z</time>
      </trkpt>
      <trkpt lat="44.2904" lon="3.68873">
        <ele>687</ele>
        <time>2016-05-16T11:41:12Z</time>
      </trkpt>
      <trkpt lat="44.29042" lon="3.68864">
        <ele>684</ele>
        <time>2016-05-16T11:41:22Z</time>
      </trkpt>
      <trkpt lat="44.29047" lon="3.68857">
        <ele>683</ele>
        <time>2016-05-16T11:41:31Z</time>
      </trkpt>
      <trkpt lat="44.29044" lon="3.6885">
        <ele>682</ele>
        <time>2016-05-16T11:41:41Z</time>
      </trkpt>
      <trkpt lat="44.29038" lon="3.68847">
        <ele>681</ele>
        <time>2016-05-16T11:41:50Z</time>
      </trkpt>
      <trkpt lat="44.29036" lon="3.68836">
        <ele>672</ele>
        <time>2016-05-16T11:42:00Z</time>
      </trkpt>
      <trkpt lat="44.29042" lon="3.6883">
        <ele>672</ele>
        <time>2016-05-16T11:42:09Z</time>
      </trkpt>
      <trkpt lat="44.29044" lon="3.68822">
        <ele>672</ele>
        <time>2016-05-16T11:42:22Z</time>
      </trkpt>
      <trkpt lat="44.29045" lon="3.68821">
        <ele>671</ele>
        <time>2016-05-16T11:42:34Z</time>
      </trkpt>
      <trkpt lat="44.29047" lon="3.68812">
        <ele>671</ele>
        <time>2016-05-16T11:42:45Z</time>
      </trkpt>
      <trkpt lat="44.29054" lon="3.68809">
        <ele>670</ele>
        <time>2016-05-16T11:42:54Z</time>
      </trkpt>
      <trkpt lat="44.29054" lon="3.68807">
        <ele>666</ele>
        <time>2016-05-16T11:43:04Z</time>
      </trkpt>
      <trkpt lat="44.29054" lon="3.68803">
        <ele>662</ele>
        <time>2016-05-16T11:43:15Z</time>
      </trkpt>
      <trkpt lat="44.29057" lon="3.688">
        <ele>662</ele>
        <time>2016-05-16T11:43:25Z</time>
      </trkpt>
      <trkpt lat="44.29057" lon="3.68798">
        <ele>661</ele>
        <time>2016-05-16T11:43:36Z</time>
      </trkpt>
      <trkpt lat="44.29059" lon="3.68796">
        <ele>661</ele>
        <time>2016-05-16T11:43:46Z</time>
      </trkpt>
      <trkpt lat="44.29059" lon="3.68796">
        <ele>661</ele>
        <time>2016-05-16T11:43:57Z</time>
      </trkpt>
      <trkpt lat="44.29055" lon="3.68802">
        <ele>652</ele>
        <time>2016-05-16T11:44:07Z</time>
      </trkpt>
      <trkpt lat="44.29056" lon="3.68804">
        <ele>645</ele>
        <time>2016-05-16T11:44:24Z</time>
      </trkpt>
      <trkpt lat="44.29057" lon="3.68802">
        <ele>660</ele>
        <time>2016-05-16T11:44:42Z</time>
      </trkpt>
      <trkpt lat="44.29056" lon="3.68799">
        <ele>660</ele>
        <time>2016-05-16T11:44:52Z</time>
      </trkpt>
      <trkpt lat="44.29057" lon="3.68794">
        <ele>659</ele>
        <time>2016-05-16T11:45:01Z</time>
      </trkpt>
      <trkpt lat="44.29061" lon="3.68791">
        <ele>659</ele>
        <time>2016-05-16T11:45:10Z</time>
      </trkpt>
      <trkpt lat="44.29073" lon="3.68786">
        <ele>662</ele>
        <time>2016-05-16T11:45:20Z</time>
      </trkpt>
      <trkpt lat="44.29081" lon="3.68778">
        <ele>662</ele>
        <time>2016-05-16T11:45:29Z</time>
      </trkpt>
      <trkpt lat="44.29094" lon="3.6877">
        <ele>665</ele>
        <time>2016-05-16T11:45:39Z</time>
      </trkpt>
      <trkpt lat="44.29105" lon="3.68767">
        <ele>665</ele>
        <time>2016-05-16T11:45:49Z</time>
      </trkpt>
      <trkpt lat="44.29115" lon="3.68763">
        <ele>665</ele>
        <time>2016-05-16T11:45:59Z</time>
      </trkpt>
      <trkpt lat="44.29127" lon="3.68758">
        <ele>665</ele>
        <time>2016-05-16T11:46:10Z</time>
      </trkpt>
      <trkpt lat="44.29139" lon="3.68754">
        <ele>662</ele>
        <time>2016-05-16T11:46:19Z</time>
      </trkpt>
      <trkpt lat="44.2915" lon="3.68745">
        <ele>662</ele>
        <time>2016-05-16T11:46:29Z</time>
      </trkpt>
      <trkpt lat="44.2916" lon="3.68735">
        <ele>662</ele>
        <time>2016-05-16T11:46:39Z</time>
      </trkpt>
      <trkpt lat="44.2917" lon="3.68725">
        <ele>662</ele>
        <time>2016-05-16T11:46:50Z</time>
      </trkpt>
      <trkpt lat="44.29181" lon="3.68719">
        <ele>659</ele>
        <time>2016-05-16T11:47:00Z</time>
      </trkpt>
      <trkpt lat="44.2919" lon="3.68706">
        <ele>659</ele>
        <time>2016-05-16T11:47:09Z</time>
      </trkpt>
      <trkpt lat="44.29202" lon="3.68698">
        <ele>655</ele>
        <time>2016-05-16T11:47:20Z</time>
      </trkpt>
      <trkpt lat="44.29212" lon="3.68688">
        <ele>646</ele>
        <time>2016-05-16T11:47:30Z</time>
      </trkpt>
      <trkpt lat="44.29219" lon="3.68675">
        <ele>642</ele>
        <time>2016-05-16T11:47:40Z</time>
      </trkpt>
      <trkpt lat="44.29224" lon="3.68662">
        <ele>642</ele>
        <time>2016-05-16T11:47:49Z</time>
      </trkpt>
      <trkpt lat="44.29226" lon="3.68648">
        <ele>642</ele>
        <time>2016-05-16T11:47:58Z</time>
      </trkpt>
      <trkpt lat="44.29229" lon="3.68633">
        <ele>641</ele>
        <time>2016-05-16T11:48:08Z</time>
      </trkpt>
      <trkpt lat="44.2923" lon="3.68617">
        <ele>641</ele>
        <time>2016-05-16T11:48:18Z</time>
      </trkpt>
      <trkpt lat="44.29229" lon="3.686">
        <ele>641</ele>
        <time>2016-05-16T11:48:28Z</time>
      </trkpt>
      <trkpt lat="44.29231" lon="3.68586">
        <ele>641</ele>
        <time>2016-05-16T11:48:38Z</time>
      </trkpt>
      <trkpt lat="44.29233" lon="3.68571">
        <ele>641</ele>
        <time>2016-05-16T11:48:47Z</time>
      </trkpt>
      <trkpt lat="44.29237" lon="3.68556">
        <ele>646</ele>
        <time>2016-05-16T11:48:57Z</time>
      </trkpt>
      <trkpt lat="44.2924" lon="3.6854">
        <ele>650</ele>
        <time>2016-05-16T11:49:06Z</time>
      </trkpt>
      <trkpt lat="44.29249" lon="3.68527">
        <ele>650</ele>
        <time>2016-05-16T11:49:16Z</time>
      </trkpt>
      <trkpt lat="44.29258" lon="3.68516">
        <ele>650</ele>
        <time>2016-05-16T11:49:27Z</time>
      </trkpt>
      <trkpt lat="44.29265" lon="3.68503">
        <ele>650</ele>
        <time>2016-05-16T11:49:36Z</time>
      </trkpt>
      <trkpt lat="44.29272" lon="3.68487">
        <ele>651</ele>
        <time>2016-05-16T11:49:45Z</time>
      </trkpt>
      <trkpt lat="44.29282" lon="3.68476">
        <ele>653</ele>
        <time>2016-05-16T11:49:54Z</time>
      </trkpt>
      <trkpt lat="44.29294" lon="3.68465">
        <ele>656</ele>
        <time>2016-05-16T11:50:04Z</time>
      </trkpt>
      <trkpt lat="44.29307" lon="3.68462">
        <ele>656</ele>
        <time>2016-05-16T11:50:14Z</time>
      </trkpt>
      <trkpt lat="44.29321" lon="3.68458">
        <ele>656</ele>
        <time>2016-05-16T11:50:25Z</time>
      </trkpt>
      <trkpt lat="44.29332" lon="3.68457">
        <ele>656</ele>
        <time>2016-05-16T11:50:34Z</time>
      </trkpt>
      <trkpt lat="44.29344" lon="3.68456">
        <ele>656</ele>
        <time>2016-05-16T11:50:44Z</time>
      </trkpt>
      <trkpt lat="44.29357" lon="3.68451">
        <ele>655</ele>
        <time>2016-05-16T11:50:55Z</time>
      </trkpt>
      <trkpt lat="44.29369" lon="3.68446">
        <ele>655</ele>
        <time>2016-05-16T11:51:04Z</time>
      </trkpt>
      <trkpt lat="44.29382" lon="3.68439">
        <ele>654</ele>
        <time>2016-05-16T11:51:15Z</time>
      </trkpt>
      <trkpt lat="44.29391" lon="3.6843">
        <ele>651</ele>
        <time>2016-05-16T11:51:24Z</time>
      </trkpt>
      <trkpt lat="44.29401" lon="3.68424">
        <ele>648</ele>
        <time>2016-05-16T11:51:34Z</time>
      </trkpt>
      <trkpt lat="44.29412" lon="3.68416">
        <ele>647</ele>
        <time>2016-05-16T11:51:44Z</time>
      </trkpt>
      <trkpt lat="44.29423" lon="3.68404">
        <ele>646</ele>
        <time>2016-05-16T11:51:55Z</time>
      </trkpt>
      <trkpt lat="44.29432" lon="3.68396">
        <ele>646</ele>
        <time>2016-05-16T11:52:04Z</time>
      </trkpt>
      <trkpt lat="44.29443" lon="3.68386">
        <ele>642</ele>
        <time>2016-05-16T11:52:14Z</time>
      </trkpt>
      <trkpt lat="44.29451" lon="3.68378">
        <ele>639</ele>
        <time>2016-05-16T11:52:24Z</time>
      </trkpt>
      <trkpt lat="44.29523" lon="3.68365">
        <ele>641</ele>
        <time>2016-05-16T11:52:42Z</time>
      </trkpt>
      <trkpt lat="44.29541" lon="3.68367">
        <ele>648</ele>
        <time>2016-05-16T11:53:02Z</time>
      </trkpt>
      <trkpt lat="44.29549" lon="3.68374">
        <ele>645</ele>
        <time>2016-05-16T11:53:12Z</time>
      </trkpt>
      <trkpt lat="44.29558" lon="3.6838">
        <ele>640</ele>
        <time>2016-05-16T11:53:22Z</time>
      </trkpt>
      <trkpt lat="44.29563" lon="3.68378">
        <ele>640</ele>
        <time>2016-05-16T11:53:32Z</time>
      </trkpt>
      <trkpt lat="44.29571" lon="3.68382">
        <ele>640</ele>
        <time>2016-05-16T11:53:43Z</time>
      </trkpt>
      <trkpt lat="44.29573" lon="3.68388">
        <ele>640</ele>
        <time>2016-05-16T11:53:55Z</time>
      </trkpt>
      <trkpt lat="44.29575" lon="3.68387">
        <ele>645</ele>
        <time>2016-05-16T11:54:12Z</time>
      </trkpt>
      <trkpt lat="44.29579" lon="3.68392">
        <ele>640</ele>
        <time>2016-05-16T11:54:22Z</time>
      </trkpt>
      <trkpt lat="44.29589" lon="3.68387">
        <ele>638</ele>
        <time>2016-05-16T11:54:32Z</time>
      </trkpt>
      <trkpt lat="44.29598" lon="3.68381">
        <ele>641</ele>
        <time>2016-05-16T11:54:42Z</time>
      </trkpt>
      <trkpt lat="44.2961" lon="3.68382">
        <ele>648</ele>
        <time>2016-05-16T11:54:52Z</time>
      </trkpt>
      <trkpt lat="44.29622" lon="3.68387">
        <ele>644</ele>
        <time>2016-05-16T11:55:02Z</time>
      </trkpt>
      <trkpt lat="44.29634" lon="3.68383">
        <ele>644</ele>
        <time>2016-05-16T11:55:12Z</time>
      </trkpt>
      <trkpt lat="44.29645" lon="3.68383">
        <ele>644</ele>
        <time>2016-05-16T11:55:22Z</time>
      </trkpt>
      <trkpt lat="44.29659" lon="3.68381">
        <ele>645</ele>
        <time>2016-05-16T11:55:32Z</time>
      </trkpt>
      <trkpt lat="44.29669" lon="3.68374">
        <ele>646</ele>
        <time>2016-05-16T11:55:43Z</time>
      </trkpt>
      <trkpt lat="44.29681" lon="3.68372">
        <ele>644</ele>
        <time>2016-05-16T11:55:53Z</time>
      </trkpt>
      <trkpt lat="44.29692" lon="3.68371">
        <ele>640</ele>
        <time>2016-05-16T11:56:02Z</time>
      </trkpt>
      <trkpt lat="44.29705" lon="3.68369">
        <ele>640</ele>
        <time>2016-05-16T11:56:12Z</time>
      </trkpt>
      <trkpt lat="44.29719" lon="3.68365">
        <ele>641</ele>
        <time>2016-05-16T11:56:22Z</time>
      </trkpt>
      <trkpt lat="44.2973" lon="3.68359">
        <ele>641</ele>
        <time>2016-05-16T11:56:32Z</time>
      </trkpt>
      <trkpt lat="44.29744" lon="3.68355">
        <ele>641</ele>
        <time>2016-05-16T11:56:42Z</time>
      </trkpt>
      <trkpt lat="44.29758" lon="3.68351">
        <ele>641</ele>
        <time>2016-05-16T11:56:52Z</time>
      </trkpt>
      <trkpt lat="44.29776" lon="3.68359">
        <ele>638</ele>
        <time>2016-05-16T11:57:02Z</time>
      </trkpt>
      <trkpt lat="44.29788" lon="3.68354">
        <ele>628</ele>
        <time>2016-05-16T11:57:12Z</time>
      </trkpt>
      <trkpt lat="44.29799" lon="3.68344">
        <ele>626</ele>
        <time>2016-05-16T11:57:22Z</time>
      </trkpt>
      <trkpt lat="44.29809" lon="3.68334">
        <ele>626</ele>
        <time>2016-05-16T11:57:32Z</time>
      </trkpt>
      <trkpt lat="44.29819" lon="3.68321">
        <ele>626</ele>
        <time>2016-05-16T11:57:42Z</time>
      </trkpt>
      <trkpt lat="44.29828" lon="3.68308">
        <ele>626</ele>
        <time>2016-05-16T11:57:52Z</time>
      </trkpt>
      <trkpt lat="44.29836" lon="3.68295">
        <ele>625</ele>
        <time>2016-05-16T11:58:02Z</time>
      </trkpt>
      <trkpt lat="44.29844" lon="3.68282">
        <ele>625</ele>
        <time>2016-05-16T11:58:12Z</time>
      </trkpt>
      <trkpt lat="44.29848" lon="3.68266">
        <ele>625</ele>
        <time>2016-05-16T11:58:22Z</time>
      </trkpt>
      <trkpt lat="44.29855" lon="3.68252">
        <ele>625</ele>
        <time>2016-05-16T11:58:32Z</time>
      </trkpt>
      <trkpt lat="44.29861" lon="3.68235">
        <ele>627</ele>
        <time>2016-05-16T11:58:42Z</time>
      </trkpt>
      <trkpt lat="44.29867" lon="3.68217">
        <ele>627</ele>
        <time>2016-05-16T11:58:52Z</time>
      </trkpt>
      <trkpt lat="44.29871" lon="3.68201">
        <ele>627</ele>
        <time>2016-05-16T11:59:02Z</time>
      </trkpt>
      <trkpt lat="44.29878" lon="3.68186">
        <ele>627</ele>
        <time>2016-05-16T11:59:12Z</time>
      </trkpt>
      <trkpt lat="44.29882" lon="3.68169">
        <ele>627</ele>
        <time>2016-05-16T11:59:22Z</time>
      </trkpt>
      <trkpt lat="44.29886" lon="3.68151">
        <ele>627</ele>
        <time>2016-05-16T11:59:32Z</time>
      </trkpt>
      <trkpt lat="44.29893" lon="3.68133">
        <ele>627</ele>
        <time>2016-05-16T11:59:42Z</time>
      </trkpt>
      <trkpt lat="44.29899" lon="3.68117">
        <ele>627</ele>
        <time>2016-05-16T11:59:52Z</time>
      </trkpt>
      <trkpt lat="44.299" lon="3.68099">
        <ele>627</ele>
        <time>2016-05-16T12:00:02Z</time>
      </trkpt>
      <trkpt lat="44.29898" lon="3.68088">
        <ele>631</ele>
        <time>2016-05-16T12:00:12Z</time>
      </trkpt>
      <trkpt lat="44.29922" lon="3.68019">
        <ele>645</ele>
        <time>2016-05-16T12:00:22Z</time>
      </trkpt>
      <trkpt lat="44.29925" lon="3.68008">
        <ele>641</ele>
        <time>2016-05-16T12:00:32Z</time>
      </trkpt>
      <trkpt lat="44.29934" lon="3.67997">
        <ele>633</ele>
        <time>2016-05-16T12:00:41Z</time>
      </trkpt>
      <trkpt lat="44.2994" lon="3.67982">
        <ele>627</ele>
        <time>2016-05-16T12:00:50Z</time>
      </trkpt>
      <trkpt lat="44.29945" lon="3.67968">
        <ele>619</ele>
        <time>2016-05-16T12:01:00Z</time>
      </trkpt>
      <trkpt lat="44.29954" lon="3.67953">
        <ele>619</ele>
        <time>2016-05-16T12:01:10Z</time>
      </trkpt>
      <trkpt lat="44.29963" lon="3.67939">
        <ele>620</ele>
        <time>2016-05-16T12:01:20Z</time>
      </trkpt>
      <trkpt lat="44.29974" lon="3.67927">
        <ele>622</ele>
        <time>2016-05-16T12:01:31Z</time>
      </trkpt>
      <trkpt lat="44.29983" lon="3.67917">
        <ele>623</ele>
        <time>2016-05-16T12:01:40Z</time>
      </trkpt>
      <trkpt lat="44.29991" lon="3.67901">
        <ele>623</ele>
        <time>2016-05-16T12:01:51Z</time>
      </trkpt>
      <trkpt lat="44.29996" lon="3.67888">
        <ele>623</ele>
        <time>2016-05-16T12:02:00Z</time>
      </trkpt>
      <trkpt lat="44.30004" lon="3.67873">
        <ele>622</ele>
        <time>2016-05-16T12:02:11Z</time>
      </trkpt>
      <trkpt lat="44.30011" lon="3.6786">
        <ele>620</ele>
        <time>2016-05-16T12:02:20Z</time>
      </trkpt>
      <trkpt lat="44.30016" lon="3.67845">
        <ele>617</ele>
        <time>2016-05-16T12:02:30Z</time>
      </trkpt>
      <trkpt lat="44.30027" lon="3.67832">
        <ele>617</ele>
        <time>2016-05-16T12:02:41Z</time>
      </trkpt>
      <trkpt lat="44.30032" lon="3.67818">
        <ele>617</ele>
        <time>2016-05-16T12:02:51Z</time>
      </trkpt>
      <trkpt lat="44.30032" lon="3.67804">
        <ele>617</ele>
        <time>2016-05-16T12:03:00Z</time>
      </trkpt>
      <trkpt lat="44.30033" lon="3.67785">
        <ele>621</ele>
        <time>2016-05-16T12:03:10Z</time>
      </trkpt>
      <trkpt lat="44.30031" lon="3.67766">
        <ele>621</ele>
        <time>2016-05-16T12:03:20Z</time>
      </trkpt>
      <trkpt lat="44.30032" lon="3.67748">
        <ele>617</ele>
        <time>2016-05-16T12:03:30Z</time>
      </trkpt>
      <trkpt lat="44.30027" lon="3.67735">
        <ele>614</ele>
        <time>2016-05-16T12:03:40Z</time>
      </trkpt>
      <trkpt lat="44.30016" lon="3.67729">
        <ele>628</ele>
        <time>2016-05-16T12:03:50Z</time>
      </trkpt>
      <trkpt lat="44.3001" lon="3.67719">
        <ele>647</ele>
        <time>2016-05-16T12:04:00Z</time>
      </trkpt>
      <trkpt lat="44.30014" lon="3.67708">
        <ele>639</ele>
        <time>2016-05-16T12:04:11Z</time>
      </trkpt>
      <trkpt lat="44.30013" lon="3.677">
        <ele>625</ele>
        <time>2016-05-16T12:04:22Z</time>
      </trkpt>
      <trkpt lat="44.30007" lon="3.67699">
        <ele>625</ele>
        <time>2016-05-16T12:04:31Z</time>
      </trkpt>
      <trkpt lat="44.29993" lon="3.67701">
        <ele>637</ele>
        <time>2016-05-16T12:04:40Z</time>
      </trkpt>
      <trkpt lat="44.29977" lon="3.67702">
        <ele>664</ele>
        <time>2016-05-16T12:04:51Z</time>
      </trkpt>
      <trkpt lat="44.29967" lon="3.67691">
        <ele>680</ele>
        <time>2016-05-16T12:05:00Z</time>
      </trkpt>
      <trkpt lat="44.2996" lon="3.67668">
        <ele>682</ele>
        <time>2016-05-16T12:05:10Z</time>
      </trkpt>
      <trkpt lat="44.29953" lon="3.67647">
        <ele>672</ele>
        <time>2016-05-16T12:05:20Z</time>
      </trkpt>
      <trkpt lat="44.29956" lon="3.67614">
        <ele>659</ele>
        <time>2016-05-16T12:05:30Z</time>
      </trkpt>
      <trkpt lat="44.29957" lon="3.67588">
        <ele>633</ele>
        <time>2016-05-16T12:05:40Z</time>
      </trkpt>
      <trkpt lat="44.29952" lon="3.67566">
        <ele>617</ele>
        <time>2016-05-16T12:05:50Z</time>
      </trkpt>
      <trkpt lat="44.29947" lon="3.67551">
        <ele>611</ele>
        <time>2016-05-16T12:06:00Z</time>
      </trkpt>
      <trkpt lat="44.29945" lon="3.67536">
        <ele>611</ele>
        <time>2016-05-16T12:06:10Z</time>
      </trkpt>
      <trkpt lat="44.29942" lon="3.67517">
        <ele>610</ele>
        <time>2016-05-16T12:06:20Z</time>
      </trkpt>
      <trkpt lat="44.29938" lon="3.67502">
        <ele>610</ele>
        <time>2016-05-16T12:06:31Z</time>
      </trkpt>
      <trkpt lat="44.29935" lon="3.67489">
        <ele>611</ele>
        <time>2016-05-16T12:06:40Z</time>
      </trkpt>
      <trkpt lat="44.29931" lon="3.67472">
        <ele>618</ele>
        <time>2016-05-16T12:06:50Z</time>
      </trkpt>
      <trkpt lat="44.29929" lon="3.67452">
        <ele>619</ele>
        <time>2016-05-16T12:07:00Z</time>
      </trkpt>
      <trkpt lat="44.29929" lon="3.67436">
        <ele>619</ele>
        <time>2016-05-16T12:07:10Z</time>
      </trkpt>
      <trkpt lat="44.29928" lon="3.67417">
        <ele>619</ele>
        <time>2016-05-16T12:07:20Z</time>
      </trkpt>
      <trkpt lat="44.29932" lon="3.67398">
        <ele>619</ele>
        <time>2016-05-16T12:07:30Z</time>
      </trkpt>
      <trkpt lat="44.29932" lon="3.67381">
        <ele>621</ele>
        <time>2016-05-16T12:07:40Z</time>
      </trkpt>
      <trkpt lat="44.29934" lon="3.67363">
        <ele>625</ele>
        <time>2016-05-16T12:07:50Z</time>
      </trkpt>
      <trkpt lat="44.29934" lon="3.67347">
        <ele>626</ele>
        <time>2016-05-16T12:08:00Z</time>
      </trkpt>
      <trkpt lat="44.29938" lon="3.67326">
        <ele>626</ele>
        <time>2016-05-16T12:08:10Z</time>
      </trkpt>
      <trkpt lat="44.2994" lon="3.67305">
        <ele>621</ele>
        <time>2016-05-16T12:08:20Z</time>
      </trkpt>
      <trkpt lat="44.29937" lon="3.67286">
        <ele>620</ele>
        <time>2016-05-16T12:08:31Z</time>
      </trkpt>
      <trkpt lat="44.29934" lon="3.6727">
        <ele>619</ele>
        <time>2016-05-16T12:08:40Z</time>
      </trkpt>
      <trkpt lat="44.2993" lon="3.67254">
        <ele>617</ele>
        <time>2016-05-16T12:08:50Z</time>
      </trkpt>
      <trkpt lat="44.29919" lon="3.67247">
        <ele>619</ele>
        <time>2016-05-16T12:09:01Z</time>
      </trkpt>
      <trkpt lat="44.29908" lon="3.6724">
        <ele>628</ele>
        <time>2016-05-16T12:09:11Z</time>
      </trkpt>
      <trkpt lat="44.29895" lon="3.67239">
        <ele>639</ele>
        <time>2016-05-16T12:09:20Z</time>
      </trkpt>
      <trkpt lat="44.29884" lon="3.6723">
        <ele>655</ele>
        <time>2016-05-16T12:09:30Z</time>
      </trkpt>
      <trkpt lat="44.29879" lon="3.67216">
        <ele>657</ele>
        <time>2016-05-16T12:09:40Z</time>
      </trkpt>
      <trkpt lat="44.29874" lon="3.67196">
        <ele>644</ele>
        <time>2016-05-16T12:09:50Z</time>
      </trkpt>
      <trkpt lat="44.29861" lon="3.6718">
        <ele>627</ele>
        <time>2016-05-16T12:10:00Z</time>
      </trkpt>
      <trkpt lat="44.29848" lon="3.67168">
        <ele>624</ele>
        <time>2016-05-16T12:10:10Z</time>
      </trkpt>
      <trkpt lat="44.2984" lon="3.67154">
        <ele>622</ele>
        <time>2016-05-16T12:10:20Z</time>
      </trkpt>
      <trkpt lat="44.2983" lon="3.67139">
        <ele>626</ele>
        <time>2016-05-16T12:10:30Z</time>
      </trkpt>
      <trkpt lat="44.29819" lon="3.67124">
        <ele>631</ele>
        <time>2016-05-16T12:10:40Z</time>
      </trkpt>
      <trkpt lat="44.29808" lon="3.67114">
        <ele>617</ele>
        <time>2016-05-16T12:10:50Z</time>
      </trkpt>
      <trkpt lat="44.29797" lon="3.67101">
        <ele>612</ele>
        <time>2016-05-16T12:11:00Z</time>
      </trkpt>
      <trkpt lat="44.29787" lon="3.67081">
        <ele>611</ele>
        <time>2016-05-16T12:11:10Z</time>
      </trkpt>
      <trkpt lat="44.29781" lon="3.67062">
        <ele>618</ele>
        <time>2016-05-16T12:11:21Z</time>
      </trkpt>
      <trkpt lat="44.29775" lon="3.67047">
        <ele>616</ele>
        <time>2016-05-16T12:11:30Z</time>
      </trkpt>
      <trkpt lat="44.29771" lon="3.67028">
        <ele>611</ele>
        <time>2016-05-16T12:11:40Z</time>
      </trkpt>
      <trkpt lat="44.29767" lon="3.6701">
        <ele>611</ele>
        <time>2016-05-16T12:11:50Z</time>
      </trkpt>
      <trkpt lat="44.29764" lon="3.66992">
        <ele>614</ele>
        <time>2016-05-16T12:12:00Z</time>
      </trkpt>
      <trkpt lat="44.2976" lon="3.66974">
        <ele>613</ele>
        <time>2016-05-16T12:12:10Z</time>
      </trkpt>
      <trkpt lat="44.29759" lon="3.66955">
        <ele>608</ele>
        <time>2016-05-16T12:12:20Z</time>
      </trkpt>
      <trkpt lat="44.29756" lon="3.66938">
        <ele>602</ele>
        <time>2016-05-16T12:12:30Z</time>
      </trkpt>
      <trkpt lat="44.29752" lon="3.66922">
        <ele>604</ele>
        <time>2016-05-16T12:12:40Z</time>
      </trkpt>
      <trkpt lat="44.2975" lon="3.66902">
        <ele>600</ele>
        <time>2016-05-16T12:12:51Z</time>
      </trkpt>
      <trkpt lat="44.29755" lon="3.6688">
        <ele>599</ele>
        <time>2016-05-16T12:13:00Z</time>
      </trkpt>
      <trkpt lat="44.29757" lon="3.66858">
        <ele>602</ele>
        <time>2016-05-16T12:13:10Z</time>
      </trkpt>
      <trkpt lat="44.2976" lon="3.6684">
        <ele>608</ele>
        <time>2016-05-16T12:13:21Z</time>
      </trkpt>
      <trkpt lat="44.29758" lon="3.66821">
        <ele>611</ele>
        <time>2016-05-16T12:13:30Z</time>
      </trkpt>
      <trkpt lat="44.29761" lon="3.66802">
        <ele>611</ele>
        <time>2016-05-16T12:13:40Z</time>
      </trkpt>
      <trkpt lat="44.29763" lon="3.66788">
        <ele>611</ele>
        <time>2016-05-16T12:13:51Z</time>
      </trkpt>
      <trkpt lat="44.29763" lon="3.66773">
        <ele>612</ele>
        <time>2016-05-16T12:14:00Z</time>
      </trkpt>
      <trkpt lat="44.29766" lon="3.66752">
        <ele>612</ele>
        <time>2016-05-16T12:14:10Z</time>
      </trkpt>
      <trkpt lat="44.29767" lon="3.66733">
        <ele>611</ele>
        <time>2016-05-16T12:14:20Z</time>
      </trkpt>
      <trkpt lat="44.29769" lon="3.66719">
        <ele>611</ele>
        <time>2016-05-16T12:14:30Z</time>
      </trkpt>
      <trkpt lat="44.29772" lon="3.66697">
        <ele>611</ele>
        <time>2016-05-16T12:14:40Z</time>
      </trkpt>
      <trkpt lat="44.29772" lon="3.66676">
        <ele>609</ele>
        <time>2016-05-16T12:14:50Z</time>
      </trkpt>
      <trkpt lat="44.29774" lon="3.66655">
        <ele>608</ele>
        <time>2016-05-16T12:15:01Z</time>
      </trkpt>
      <trkpt lat="44.29774" lon="3.6664">
        <ele>608</ele>
        <time>2016-05-16T12:15:10Z</time>
      </trkpt>
      <trkpt lat="44.29777" lon="3.66621">
        <ele>608</ele>
        <time>2016-05-16T12:15:20Z</time>
      </trkpt>
      <trkpt lat="44.29779" lon="3.66604">
        <ele>609</ele>
        <time>2016-05-16T12:15:30Z</time>
      </trkpt>
      <trkpt lat="44.29783" lon="3.66584">
        <ele>611</ele>
        <time>2016-05-16T12:15:40Z</time>
      </trkpt>
      <trkpt lat="44.29789" lon="3.66566">
        <ele>611</ele>
        <time>2016-05-16T12:15:50Z</time>
      </trkpt>
      <trkpt lat="44.29797" lon="3.66547">
        <ele>608</ele>
        <time>2016-05-16T12:16:00Z</time>
      </trkpt>
      <trkpt lat="44.29808" lon="3.66533">
        <ele>604</ele>
        <time>2016-05-16T12:16:10Z</time>
      </trkpt>
      <trkpt lat="44.29817" lon="3.66517">
        <ele>603</ele>
        <time>2016-05-16T12:16:20Z</time>
      </trkpt>
      <trkpt lat="44.2983" lon="3.66505">
        <ele>599</ele>
        <time>2016-05-16T12:16:30Z</time>
      </trkpt>
      <trkpt lat="44.29842" lon="3.66496">
        <ele>599</ele>
        <time>2016-05-16T12:16:40Z</time>
      </trkpt>
      <trkpt lat="44.29852" lon="3.66494">
        <ele>599</ele>
        <time>2016-05-16T12:16:52Z</time>
      </trkpt>
      <trkpt lat="44.29853" lon="3.66492">
        <ele>604</ele>
        <time>2016-05-16T12:17:03Z</time>
      </trkpt>
      <trkpt lat="44.29859" lon="3.66484">
        <ele>604</ele>
        <time>2016-05-16T12:17:13Z</time>
      </trkpt>
      <trkpt lat="44.29869" lon="3.66479">
        <ele>604</ele>
        <time>2016-05-16T12:17:22Z</time>
      </trkpt>
      <trkpt lat="44.2988" lon="3.66473">
        <ele>604</ele>
        <time>2016-05-16T12:17:31Z</time>
      </trkpt>
      <trkpt lat="44.29888" lon="3.66469">
        <ele>604</ele>
        <time>2016-05-16T12:17:40Z</time>
      </trkpt>
      <trkpt lat="44.299" lon="3.6646">
        <ele>604</ele>
        <time>2016-05-16T12:17:51Z</time>
      </trkpt>
      <trkpt lat="44.29911" lon="3.66454">
        <ele>604</ele>
        <time>2016-05-16T12:18:02Z</time>
      </trkpt>
      <trkpt lat="44.2992" lon="3.66447">
        <ele>602</ele>
        <time>2016-05-16T12:18:12Z</time>
      </trkpt>
      <trkpt lat="44.29932" lon="3.66437">
        <ele>601</ele>
        <time>2016-05-16T12:18:21Z</time>
      </trkpt>
      <trkpt lat="44.29943" lon="3.66434">
        <ele>600</ele>
        <time>2016-05-16T12:18:30Z</time>
      </trkpt>
      <trkpt lat="44.29954" lon="3.66429">
        <ele>598</ele>
        <time>2016-05-16T12:18:40Z</time>
      </trkpt>
      <trkpt lat="44.29966" lon="3.66423">
        <ele>598</ele>
        <time>2016-05-16T12:18:50Z</time>
      </trkpt>
      <trkpt lat="44.29973" lon="3.66416">
        <ele>598</ele>
        <time>2016-05-16T12:19:00Z</time>
      </trkpt>
      <trkpt lat="44.29984" lon="3.6641">
        <ele>600</ele>
        <time>2016-05-16T12:19:13Z</time>
      </trkpt>
      <trkpt lat="44.29992" lon="3.66404">
        <ele>604</ele>
        <time>2016-05-16T12:19:23Z</time>
      </trkpt>
      <trkpt lat="44.30002" lon="3.66394">
        <ele>605</ele>
        <time>2016-05-16T12:19:33Z</time>
      </trkpt>
      <trkpt lat="44.3001" lon="3.66388">
        <ele>606</ele>
        <time>2016-05-16T12:19:42Z</time>
      </trkpt>
      <trkpt lat="44.30019" lon="3.66379">
        <ele>608</ele>
        <time>2016-05-16T12:19:51Z</time>
      </trkpt>
      <trkpt lat="44.30029" lon="3.66375">
        <ele>614</ele>
        <time>2016-05-16T12:20:00Z</time>
      </trkpt>
      <trkpt lat="44.3003" lon="3.66371">
        <ele>619</ele>
        <time>2016-05-16T12:20:14Z</time>
      </trkpt>
      <trkpt lat="44.3003" lon="3.6637">
        <ele>619</ele>
        <time>2016-05-16T12:20:24Z</time>
      </trkpt>
      <trkpt lat="44.30034" lon="3.66365">
        <ele>627</ele>
        <time>2016-05-16T12:20:35Z</time>
      </trkpt>
      <trkpt lat="44.30037" lon="3.66367">
        <ele>633</ele>
        <time>2016-05-16T12:20:45Z</time>
      </trkpt>
      <trkpt lat="44.30041" lon="3.66364">
        <ele>633</ele>
        <time>2016-05-16T12:20:55Z</time>
      </trkpt>
      <trkpt lat="44.30045" lon="3.66372">
        <ele>628</ele>
        <time>2016-05-16T12:21:09Z</time>
      </trkpt>
      <trkpt lat="44.3005" lon="3.66367">
        <ele>621</ele>
        <time>2016-05-16T12:21:18Z</time>
      </trkpt>
      <trkpt lat="44.30057" lon="3.6636">
        <ele>617</ele>
        <time>2016-05-16T12:21:27Z</time>
      </trkpt>
      <trkpt lat="44.30067" lon="3.66357">
        <ele>621</ele>
        <time>2016-05-16T12:21:36Z</time>
      </trkpt>
      <trkpt lat="44.3008" lon="3.66368">
        <ele>625</ele>
        <time>2016-05-16T12:21:45Z</time>
      </trkpt>
      <trkpt lat="44.30085" lon="3.66371">
        <ele>624</ele>
        <time>2016-05-16T12:21:51Z</time>
      </trkpt>
    </trkseg>
  </trk>
</gpx>